<?xml version="1.0" encoding="UTF-8"?>
<gpx version="1.1" creator="https://www.youtrack.es" xsi:schemaLocation="http://www.topografix.com/GPX/1/1 http://www.topografix.com/GPX/1/1/gpx.xsd http://www.garmin.com/xmlschemas/GpxExtensions/v3 http://www.garmin.com/xmlschemas/GpxExtensionsv3.xsd http://www.garmin.com/xmlschemas/TrackPointExtension/v1 http://www.garmin.com/xmlschemas/TrackPointExtensionv1.xsd" xmlns:gpxtpx="http://www.garmin.com/xmlschemas/TrackPointExtension/v1" xmlns:gpxx="http://www.garmin.com/xmlschemas/GpxExtensions/v3" xmlns:xsi="http://www.w3.org/2001/XMLSchema-instance">
  <metadata>
    <link href="https://www.youtrack.es">
      <text>YouTrack.es</text>
    </link>
    <time>2026-05-08T12:20:52Z</time>
  </metadata>
  <trk>
    <src>https://www.youtrack.es</src>
    <link href="https://www.youtrack.es/ruta/16876-rio-dulce">
      <text>YouTrack.es</text>
    </link>
    <trkseg>
      <trkpt lat="41.0140240" lon="-2.6363920">
        <ele>993.6</ele>
        <time>2020-10-25T11:07:06Z</time>
      </trkpt>
      <trkpt lat="41.0139570" lon="-2.6363780">
        <ele>993.6</ele>
        <time>2020-10-25T11:07:12Z</time>
      </trkpt>
      <trkpt lat="41.0138910" lon="-2.6363560">
        <ele>993.6</ele>
        <time>2020-10-25T11:07:30Z</time>
      </trkpt>
      <trkpt lat="41.0138600" lon="-2.6363140">
        <ele>992.4</ele>
        <time>2020-10-25T11:07:38Z</time>
      </trkpt>
      <trkpt lat="41.0138090" lon="-2.6362620">
        <ele>991.2</ele>
        <time>2020-10-25T11:07:45Z</time>
      </trkpt>
      <trkpt lat="41.0137550" lon="-2.6362220">
        <ele>991.2</ele>
        <time>2020-10-25T11:07:50Z</time>
      </trkpt>
      <trkpt lat="41.0136960" lon="-2.6362080">
        <ele>990.0</ele>
        <time>2020-10-25T11:07:55Z</time>
      </trkpt>
      <trkpt lat="41.0136370" lon="-2.6361990">
        <ele>990.0</ele>
        <time>2020-10-25T11:08:00Z</time>
      </trkpt>
      <trkpt lat="41.0135880" lon="-2.6361770">
        <ele>988.7</ele>
        <time>2020-10-25T11:08:04Z</time>
      </trkpt>
      <trkpt lat="41.0135350" lon="-2.6361640">
        <ele>988.7</ele>
        <time>2020-10-25T11:08:08Z</time>
      </trkpt>
      <trkpt lat="41.0134810" lon="-2.6361500">
        <ele>987.6</ele>
        <time>2020-10-25T11:08:13Z</time>
      </trkpt>
      <trkpt lat="41.0134200" lon="-2.6361380">
        <ele>987.6</ele>
        <time>2020-10-25T11:08:18Z</time>
      </trkpt>
      <trkpt lat="41.0133660" lon="-2.6361330">
        <ele>987.6</ele>
        <time>2020-10-25T11:08:24Z</time>
      </trkpt>
      <trkpt lat="41.0133150" lon="-2.6361290">
        <ele>986.3</ele>
        <time>2020-10-25T11:08:30Z</time>
      </trkpt>
      <trkpt lat="41.0132560" lon="-2.6361200">
        <ele>985.0</ele>
        <time>2020-10-25T11:08:36Z</time>
      </trkpt>
      <trkpt lat="41.0132070" lon="-2.6361090">
        <ele>983.8</ele>
        <time>2020-10-25T11:08:41Z</time>
      </trkpt>
      <trkpt lat="41.0131530" lon="-2.6360830">
        <ele>983.8</ele>
        <time>2020-10-25T11:08:46Z</time>
      </trkpt>
      <trkpt lat="41.0131000" lon="-2.6360450">
        <ele>983.8</ele>
        <time>2020-10-25T11:08:51Z</time>
      </trkpt>
      <trkpt lat="41.0130510" lon="-2.6360210">
        <ele>983.8</ele>
        <time>2020-10-25T11:08:56Z</time>
      </trkpt>
      <trkpt lat="41.0129890" lon="-2.6360030">
        <ele>983.8</ele>
        <time>2020-10-25T11:09:02Z</time>
      </trkpt>
      <trkpt lat="41.0129310" lon="-2.6359890">
        <ele>983.8</ele>
        <time>2020-10-25T11:09:07Z</time>
      </trkpt>
      <trkpt lat="41.0128790" lon="-2.6359900">
        <ele>983.8</ele>
        <time>2020-10-25T11:09:12Z</time>
      </trkpt>
      <trkpt lat="41.0128260" lon="-2.6359880">
        <ele>983.8</ele>
        <time>2020-10-25T11:09:17Z</time>
      </trkpt>
      <trkpt lat="41.0127720" lon="-2.6359670">
        <ele>983.8</ele>
        <time>2020-10-25T11:09:24Z</time>
      </trkpt>
      <trkpt lat="41.0127160" lon="-2.6359690">
        <ele>982.4</ele>
        <time>2020-10-25T11:09:29Z</time>
      </trkpt>
      <trkpt lat="41.0126640" lon="-2.6359640">
        <ele>982.4</ele>
        <time>2020-10-25T11:09:34Z</time>
      </trkpt>
      <trkpt lat="41.0126080" lon="-2.6359480">
        <ele>982.4</ele>
        <time>2020-10-25T11:09:50Z</time>
      </trkpt>
      <trkpt lat="41.0125570" lon="-2.6359370">
        <ele>982.4</ele>
        <time>2020-10-25T11:09:54Z</time>
      </trkpt>
      <trkpt lat="41.0125080" lon="-2.6359200">
        <ele>982.4</ele>
        <time>2020-10-25T11:09:59Z</time>
      </trkpt>
      <trkpt lat="41.0124520" lon="-2.6358930">
        <ele>982.4</ele>
        <time>2020-10-25T11:10:05Z</time>
      </trkpt>
      <trkpt lat="41.0123900" lon="-2.6358780">
        <ele>982.4</ele>
        <time>2020-10-25T11:10:10Z</time>
      </trkpt>
      <trkpt lat="41.0123370" lon="-2.6358660">
        <ele>982.4</ele>
        <time>2020-10-25T11:10:15Z</time>
      </trkpt>
      <trkpt lat="41.0122830" lon="-2.6358520">
        <ele>983.6</ele>
        <time>2020-10-25T11:10:20Z</time>
      </trkpt>
      <trkpt lat="41.0122290" lon="-2.6358410">
        <ele>983.6</ele>
        <time>2020-10-25T11:10:25Z</time>
      </trkpt>
      <trkpt lat="41.0121750" lon="-2.6358410">
        <ele>983.6</ele>
        <time>2020-10-25T11:10:30Z</time>
      </trkpt>
      <trkpt lat="41.0121320" lon="-2.6358130">
        <ele>983.6</ele>
        <time>2020-10-25T11:10:35Z</time>
      </trkpt>
      <trkpt lat="41.0120810" lon="-2.6357810">
        <ele>983.6</ele>
        <time>2020-10-25T11:10:41Z</time>
      </trkpt>
      <trkpt lat="41.0120240" lon="-2.6357660">
        <ele>983.6</ele>
        <time>2020-10-25T11:10:49Z</time>
      </trkpt>
      <trkpt lat="41.0119730" lon="-2.6357630">
        <ele>983.6</ele>
        <time>2020-10-25T11:10:54Z</time>
      </trkpt>
      <trkpt lat="41.0119170" lon="-2.6357530">
        <ele>983.6</ele>
        <time>2020-10-25T11:10:59Z</time>
      </trkpt>
      <trkpt lat="41.0118630" lon="-2.6357410">
        <ele>983.6</ele>
        <time>2020-10-25T11:11:04Z</time>
      </trkpt>
      <trkpt lat="41.0118140" lon="-2.6357390">
        <ele>985.3</ele>
        <time>2020-10-25T11:11:09Z</time>
      </trkpt>
      <trkpt lat="41.0117500" lon="-2.6357090">
        <ele>985.3</ele>
        <time>2020-10-25T11:11:17Z</time>
      </trkpt>
      <trkpt lat="41.0117070" lon="-2.6356890">
        <ele>985.8</ele>
        <time>2020-10-25T11:11:22Z</time>
      </trkpt>
      <trkpt lat="41.0116530" lon="-2.6356760">
        <ele>985.8</ele>
        <time>2020-10-25T11:11:28Z</time>
      </trkpt>
      <trkpt lat="41.0116300" lon="-2.6356660">
        <ele>985.8</ele>
        <time>2020-10-25T11:12:10Z</time>
      </trkpt>
      <trkpt lat="41.0115660" lon="-2.6356290">
        <ele>985.8</ele>
        <time>2020-10-25T11:12:16Z</time>
      </trkpt>
      <trkpt lat="41.0115170" lon="-2.6356040">
        <ele>985.8</ele>
        <time>2020-10-25T11:12:21Z</time>
      </trkpt>
      <trkpt lat="41.0114640" lon="-2.6355790">
        <ele>985.8</ele>
        <time>2020-10-25T11:12:26Z</time>
      </trkpt>
      <trkpt lat="41.0114200" lon="-2.6355610">
        <ele>985.8</ele>
        <time>2020-10-25T11:12:31Z</time>
      </trkpt>
      <trkpt lat="41.0113690" lon="-2.6355340">
        <ele>985.8</ele>
        <time>2020-10-25T11:12:37Z</time>
      </trkpt>
      <trkpt lat="41.0113150" lon="-2.6355020">
        <ele>985.8</ele>
        <time>2020-10-25T11:12:42Z</time>
      </trkpt>
      <trkpt lat="41.0112690" lon="-2.6354680">
        <ele>987.0</ele>
        <time>2020-10-25T11:12:47Z</time>
      </trkpt>
      <trkpt lat="41.0112180" lon="-2.6354300">
        <ele>987.0</ele>
        <time>2020-10-25T11:12:53Z</time>
      </trkpt>
      <trkpt lat="41.0111670" lon="-2.6353990">
        <ele>987.0</ele>
        <time>2020-10-25T11:12:59Z</time>
      </trkpt>
      <trkpt lat="41.0111080" lon="-2.6353560">
        <ele>987.0</ele>
        <time>2020-10-25T11:13:05Z</time>
      </trkpt>
      <trkpt lat="41.0110620" lon="-2.6353240">
        <ele>987.0</ele>
        <time>2020-10-25T11:13:10Z</time>
      </trkpt>
      <trkpt lat="41.0109980" lon="-2.6352730">
        <ele>987.0</ele>
        <time>2020-10-25T11:13:16Z</time>
      </trkpt>
      <trkpt lat="41.0109750" lon="-2.6352470">
        <ele>987.0</ele>
        <time>2020-10-25T11:13:23Z</time>
      </trkpt>
      <trkpt lat="41.0109440" lon="-2.6352240">
        <ele>987.0</ele>
        <time>2020-10-25T11:13:39Z</time>
      </trkpt>
      <trkpt lat="41.0108600" lon="-2.6352380">
        <ele>987.0</ele>
        <time>2020-10-25T11:14:36Z</time>
      </trkpt>
      <trkpt lat="41.0108190" lon="-2.6351740">
        <ele>985.8</ele>
        <time>2020-10-25T11:14:42Z</time>
      </trkpt>
      <trkpt lat="41.0107780" lon="-2.6351590">
        <ele>983.8</ele>
        <time>2020-10-25T11:15:22Z</time>
      </trkpt>
      <trkpt lat="41.0107650" lon="-2.6351680">
        <ele>982.6</ele>
        <time>2020-10-25T11:16:06Z</time>
      </trkpt>
      <trkpt lat="41.0107550" lon="-2.6350910">
        <ele>985.7</ele>
        <time>2020-10-25T11:16:15Z</time>
      </trkpt>
      <trkpt lat="41.0107260" lon="-2.6350170">
        <ele>985.7</ele>
        <time>2020-10-25T11:16:21Z</time>
      </trkpt>
      <trkpt lat="41.0107030" lon="-2.6349600">
        <ele>985.7</ele>
        <time>2020-10-25T11:16:25Z</time>
      </trkpt>
      <trkpt lat="41.0106650" lon="-2.6349050">
        <ele>985.7</ele>
        <time>2020-10-25T11:16:30Z</time>
      </trkpt>
      <trkpt lat="41.0106190" lon="-2.6348650">
        <ele>986.9</ele>
        <time>2020-10-25T11:16:34Z</time>
      </trkpt>
      <trkpt lat="41.0105550" lon="-2.6348260">
        <ele>986.9</ele>
        <time>2020-10-25T11:16:52Z</time>
      </trkpt>
      <trkpt lat="41.0105090" lon="-2.6347800">
        <ele>986.9</ele>
        <time>2020-10-25T11:16:59Z</time>
      </trkpt>
      <trkpt lat="41.0104760" lon="-2.6347220">
        <ele>986.9</ele>
        <time>2020-10-25T11:17:06Z</time>
      </trkpt>
      <trkpt lat="41.0104630" lon="-2.6346580">
        <ele>986.9</ele>
        <time>2020-10-25T11:17:12Z</time>
      </trkpt>
      <trkpt lat="41.0104550" lon="-2.6345810">
        <ele>986.9</ele>
        <time>2020-10-25T11:17:18Z</time>
      </trkpt>
      <trkpt lat="41.0104400" lon="-2.6345140">
        <ele>986.9</ele>
        <time>2020-10-25T11:17:24Z</time>
      </trkpt>
      <trkpt lat="41.0104140" lon="-2.6344530">
        <ele>986.9</ele>
        <time>2020-10-25T11:17:29Z</time>
      </trkpt>
      <trkpt lat="41.0103910" lon="-2.6343960">
        <ele>986.9</ele>
        <time>2020-10-25T11:17:34Z</time>
      </trkpt>
      <trkpt lat="41.0103730" lon="-2.6343210">
        <ele>988.0</ele>
        <time>2020-10-25T11:17:40Z</time>
      </trkpt>
      <trkpt lat="41.0103600" lon="-2.6342480">
        <ele>988.0</ele>
        <time>2020-10-25T11:17:45Z</time>
      </trkpt>
      <trkpt lat="41.0103580" lon="-2.6341700">
        <ele>988.0</ele>
        <time>2020-10-25T11:17:50Z</time>
      </trkpt>
      <trkpt lat="41.0103450" lon="-2.6340890">
        <ele>988.0</ele>
        <time>2020-10-25T11:17:55Z</time>
      </trkpt>
      <trkpt lat="41.0103270" lon="-2.6340140">
        <ele>988.0</ele>
        <time>2020-10-25T11:18:00Z</time>
      </trkpt>
      <trkpt lat="41.0103070" lon="-2.6339470">
        <ele>988.0</ele>
        <time>2020-10-25T11:18:04Z</time>
      </trkpt>
      <trkpt lat="41.0102890" lon="-2.6338880">
        <ele>988.0</ele>
        <time>2020-10-25T11:18:08Z</time>
      </trkpt>
      <trkpt lat="41.0102680" lon="-2.6338050">
        <ele>988.0</ele>
        <time>2020-10-25T11:18:14Z</time>
      </trkpt>
      <trkpt lat="41.0102580" lon="-2.6337330">
        <ele>988.0</ele>
        <time>2020-10-25T11:18:19Z</time>
      </trkpt>
      <trkpt lat="41.0102370" lon="-2.6336590">
        <ele>988.0</ele>
        <time>2020-10-25T11:18:24Z</time>
      </trkpt>
      <trkpt lat="41.0102270" lon="-2.6335910">
        <ele>988.0</ele>
        <time>2020-10-25T11:18:29Z</time>
      </trkpt>
      <trkpt lat="41.0102090" lon="-2.6335230">
        <ele>989.2</ele>
        <time>2020-10-25T11:18:34Z</time>
      </trkpt>
      <trkpt lat="41.0101940" lon="-2.6334490">
        <ele>988.0</ele>
        <time>2020-10-25T11:18:40Z</time>
      </trkpt>
      <trkpt lat="41.0101860" lon="-2.6333750">
        <ele>988.0</ele>
        <time>2020-10-25T11:18:45Z</time>
      </trkpt>
      <trkpt lat="41.0101730" lon="-2.6333010">
        <ele>988.0</ele>
        <time>2020-10-25T11:18:50Z</time>
      </trkpt>
      <trkpt lat="41.0101500" lon="-2.6332290">
        <ele>988.0</ele>
        <time>2020-10-25T11:18:55Z</time>
      </trkpt>
      <trkpt lat="41.0101270" lon="-2.6331620">
        <ele>992.3</ele>
        <time>2020-10-25T11:19:00Z</time>
      </trkpt>
      <trkpt lat="41.0101040" lon="-2.6330930">
        <ele>991.2</ele>
        <time>2020-10-25T11:19:05Z</time>
      </trkpt>
      <trkpt lat="41.0100890" lon="-2.6330290">
        <ele>992.5</ele>
        <time>2020-10-25T11:19:10Z</time>
      </trkpt>
      <trkpt lat="41.0100660" lon="-2.6329570">
        <ele>992.5</ele>
        <time>2020-10-25T11:19:15Z</time>
      </trkpt>
      <trkpt lat="41.0100400" lon="-2.6328980">
        <ele>992.5</ele>
        <time>2020-10-25T11:19:20Z</time>
      </trkpt>
      <trkpt lat="41.0100170" lon="-2.6328440">
        <ele>992.5</ele>
        <time>2020-10-25T11:19:26Z</time>
      </trkpt>
      <trkpt lat="41.0100170" lon="-2.6327660">
        <ele>992.5</ele>
        <time>2020-10-25T11:19:32Z</time>
      </trkpt>
      <trkpt lat="41.0100250" lon="-2.6326860">
        <ele>992.5</ele>
        <time>2020-10-25T11:19:37Z</time>
      </trkpt>
      <trkpt lat="41.0100300" lon="-2.6326030">
        <ele>992.5</ele>
        <time>2020-10-25T11:19:43Z</time>
      </trkpt>
      <trkpt lat="41.0100330" lon="-2.6325420">
        <ele>992.5</ele>
        <time>2020-10-25T11:19:47Z</time>
      </trkpt>
      <trkpt lat="41.0100430" lon="-2.6324710">
        <ele>992.5</ele>
        <time>2020-10-25T11:19:52Z</time>
      </trkpt>
      <trkpt lat="41.0100510" lon="-2.6323970">
        <ele>992.5</ele>
        <time>2020-10-25T11:19:57Z</time>
      </trkpt>
      <trkpt lat="41.0100560" lon="-2.6323230">
        <ele>992.5</ele>
        <time>2020-10-25T11:20:02Z</time>
      </trkpt>
      <trkpt lat="41.0100660" lon="-2.6322620">
        <ele>992.5</ele>
        <time>2020-10-25T11:20:06Z</time>
      </trkpt>
      <trkpt lat="41.0100810" lon="-2.6321860">
        <ele>992.5</ele>
        <time>2020-10-25T11:20:11Z</time>
      </trkpt>
      <trkpt lat="41.0100890" lon="-2.6321270">
        <ele>992.5</ele>
        <time>2020-10-25T11:20:16Z</time>
      </trkpt>
      <trkpt lat="41.0100660" lon="-2.6320880">
        <ele>992.5</ele>
        <time>2020-10-25T11:20:50Z</time>
      </trkpt>
      <trkpt lat="41.0100150" lon="-2.6320210">
        <ele>986.1</ele>
        <time>2020-10-25T11:21:46Z</time>
      </trkpt>
      <trkpt lat="41.0099940" lon="-2.6319400">
        <ele>986.1</ele>
        <time>2020-10-25T11:21:52Z</time>
      </trkpt>
      <trkpt lat="41.0099920" lon="-2.6318740">
        <ele>986.1</ele>
        <time>2020-10-25T11:21:56Z</time>
      </trkpt>
      <trkpt lat="41.0099920" lon="-2.6318130">
        <ele>986.1</ele>
        <time>2020-10-25T11:22:01Z</time>
      </trkpt>
      <trkpt lat="41.0100020" lon="-2.6317050">
        <ele>986.1</ele>
        <time>2020-10-25T11:22:09Z</time>
      </trkpt>
      <trkpt lat="41.0100150" lon="-2.6316340">
        <ele>986.1</ele>
        <time>2020-10-25T11:22:17Z</time>
      </trkpt>
      <trkpt lat="41.0100350" lon="-2.6315640">
        <ele>986.1</ele>
        <time>2020-10-25T11:22:22Z</time>
      </trkpt>
      <trkpt lat="41.0100400" lon="-2.6314970">
        <ele>986.1</ele>
        <time>2020-10-25T11:22:27Z</time>
      </trkpt>
      <trkpt lat="41.0100480" lon="-2.6314290">
        <ele>989.0</ele>
        <time>2020-10-25T11:22:34Z</time>
      </trkpt>
      <trkpt lat="41.0100510" lon="-2.6313560">
        <ele>990.1</ele>
        <time>2020-10-25T11:22:41Z</time>
      </trkpt>
      <trkpt lat="41.0100480" lon="-2.6312440">
        <ele>990.1</ele>
        <time>2020-10-25T11:23:03Z</time>
      </trkpt>
      <trkpt lat="41.0100740" lon="-2.6311710">
        <ele>991.3</ele>
        <time>2020-10-25T11:23:10Z</time>
      </trkpt>
      <trkpt lat="41.0100940" lon="-2.6311000">
        <ele>991.3</ele>
        <time>2020-10-25T11:23:17Z</time>
      </trkpt>
      <trkpt lat="41.0101090" lon="-2.6310260">
        <ele>991.3</ele>
        <time>2020-10-25T11:23:24Z</time>
      </trkpt>
      <trkpt lat="41.0101270" lon="-2.6309650">
        <ele>992.5</ele>
        <time>2020-10-25T11:23:30Z</time>
      </trkpt>
      <trkpt lat="41.0101500" lon="-2.6308990">
        <ele>992.5</ele>
        <time>2020-10-25T11:23:37Z</time>
      </trkpt>
      <trkpt lat="41.0101660" lon="-2.6308370">
        <ele>992.5</ele>
        <time>2020-10-25T11:23:43Z</time>
      </trkpt>
      <trkpt lat="41.0101860" lon="-2.6307540">
        <ele>992.5</ele>
        <time>2020-10-25T11:23:50Z</time>
      </trkpt>
      <trkpt lat="41.0102090" lon="-2.6306860">
        <ele>992.5</ele>
        <time>2020-10-25T11:23:56Z</time>
      </trkpt>
      <trkpt lat="41.0102370" lon="-2.6306240">
        <ele>992.5</ele>
        <time>2020-10-25T11:24:01Z</time>
      </trkpt>
      <trkpt lat="41.0102730" lon="-2.6305630">
        <ele>992.5</ele>
        <time>2020-10-25T11:24:06Z</time>
      </trkpt>
      <trkpt lat="41.0103120" lon="-2.6304950">
        <ele>992.5</ele>
        <time>2020-10-25T11:24:12Z</time>
      </trkpt>
      <trkpt lat="41.0103370" lon="-2.6304350">
        <ele>992.5</ele>
        <time>2020-10-25T11:24:17Z</time>
      </trkpt>
      <trkpt lat="41.0103650" lon="-2.6303670">
        <ele>991.2</ele>
        <time>2020-10-25T11:24:24Z</time>
      </trkpt>
      <trkpt lat="41.0103730" lon="-2.6302910">
        <ele>990.0</ele>
        <time>2020-10-25T11:24:30Z</time>
      </trkpt>
      <trkpt lat="41.0103760" lon="-2.6302130">
        <ele>990.0</ele>
        <time>2020-10-25T11:24:36Z</time>
      </trkpt>
      <trkpt lat="41.0103880" lon="-2.6301580">
        <ele>990.0</ele>
        <time>2020-10-25T11:24:42Z</time>
      </trkpt>
      <trkpt lat="41.0103990" lon="-2.6300860">
        <ele>991.9</ele>
        <time>2020-10-25T11:24:49Z</time>
      </trkpt>
      <trkpt lat="41.0104140" lon="-2.6300170">
        <ele>991.9</ele>
        <time>2020-10-25T11:24:55Z</time>
      </trkpt>
      <trkpt lat="41.0104320" lon="-2.6299450">
        <ele>991.9</ele>
        <time>2020-10-25T11:25:02Z</time>
      </trkpt>
      <trkpt lat="41.0104550" lon="-2.6298860">
        <ele>991.9</ele>
        <time>2020-10-25T11:25:09Z</time>
      </trkpt>
      <trkpt lat="41.0104680" lon="-2.6298180">
        <ele>991.9</ele>
        <time>2020-10-25T11:25:15Z</time>
      </trkpt>
      <trkpt lat="41.0104760" lon="-2.6297440">
        <ele>991.9</ele>
        <time>2020-10-25T11:25:22Z</time>
      </trkpt>
      <trkpt lat="41.0104930" lon="-2.6296700">
        <ele>991.9</ele>
        <time>2020-10-25T11:25:29Z</time>
      </trkpt>
      <trkpt lat="41.0105140" lon="-2.6295980">
        <ele>991.9</ele>
        <time>2020-10-25T11:25:35Z</time>
      </trkpt>
      <trkpt lat="41.0105290" lon="-2.6295290">
        <ele>991.9</ele>
        <time>2020-10-25T11:25:42Z</time>
      </trkpt>
      <trkpt lat="41.0105320" lon="-2.6294630">
        <ele>991.9</ele>
        <time>2020-10-25T11:25:48Z</time>
      </trkpt>
      <trkpt lat="41.0105470" lon="-2.6293870">
        <ele>991.9</ele>
        <time>2020-10-25T11:25:56Z</time>
      </trkpt>
      <trkpt lat="41.0105600" lon="-2.6293260">
        <ele>991.9</ele>
        <time>2020-10-25T11:26:04Z</time>
      </trkpt>
      <trkpt lat="41.0105780" lon="-2.6292540">
        <ele>991.9</ele>
        <time>2020-10-25T11:26:18Z</time>
      </trkpt>
      <trkpt lat="41.0105930" lon="-2.6291880">
        <ele>988.8</ele>
        <time>2020-10-25T11:26:26Z</time>
      </trkpt>
      <trkpt lat="41.0106140" lon="-2.6291280">
        <ele>988.8</ele>
        <time>2020-10-25T11:26:32Z</time>
      </trkpt>
      <trkpt lat="41.0106240" lon="-2.6290570">
        <ele>988.8</ele>
        <time>2020-10-25T11:26:39Z</time>
      </trkpt>
      <trkpt lat="41.0106320" lon="-2.6289740">
        <ele>988.8</ele>
        <time>2020-10-25T11:26:46Z</time>
      </trkpt>
      <trkpt lat="41.0106420" lon="-2.6289100">
        <ele>988.8</ele>
        <time>2020-10-25T11:26:51Z</time>
      </trkpt>
      <trkpt lat="41.0106500" lon="-2.6288390">
        <ele>991.1</ele>
        <time>2020-10-25T11:26:57Z</time>
      </trkpt>
      <trkpt lat="41.0106470" lon="-2.6287610">
        <ele>991.1</ele>
        <time>2020-10-25T11:27:03Z</time>
      </trkpt>
      <trkpt lat="41.0106420" lon="-2.6287000">
        <ele>991.1</ele>
        <time>2020-10-25T11:27:08Z</time>
      </trkpt>
      <trkpt lat="41.0106650" lon="-2.6286450">
        <ele>991.1</ele>
        <time>2020-10-25T11:27:16Z</time>
      </trkpt>
      <trkpt lat="41.0106650" lon="-2.6285750">
        <ele>992.5</ele>
        <time>2020-10-25T11:27:22Z</time>
      </trkpt>
      <trkpt lat="41.0106780" lon="-2.6285150">
        <ele>992.5</ele>
        <time>2020-10-25T11:27:28Z</time>
      </trkpt>
      <trkpt lat="41.0106700" lon="-2.6284370">
        <ele>992.5</ele>
        <time>2020-10-25T11:27:36Z</time>
      </trkpt>
      <trkpt lat="41.0106800" lon="-2.6283650">
        <ele>992.5</ele>
        <time>2020-10-25T11:27:42Z</time>
      </trkpt>
      <trkpt lat="41.0106930" lon="-2.6283070">
        <ele>993.8</ele>
        <time>2020-10-25T11:27:47Z</time>
      </trkpt>
      <trkpt lat="41.0106780" lon="-2.6282240">
        <ele>993.8</ele>
        <time>2020-10-25T11:27:53Z</time>
      </trkpt>
      <trkpt lat="41.0106730" lon="-2.6281630">
        <ele>993.8</ele>
        <time>2020-10-25T11:27:57Z</time>
      </trkpt>
      <trkpt lat="41.0106730" lon="-2.6280950">
        <ele>993.8</ele>
        <time>2020-10-25T11:28:02Z</time>
      </trkpt>
      <trkpt lat="41.0107030" lon="-2.6280200">
        <ele>993.8</ele>
        <time>2020-10-25T11:28:10Z</time>
      </trkpt>
      <trkpt lat="41.0107260" lon="-2.6279590">
        <ele>993.8</ele>
        <time>2020-10-25T11:28:15Z</time>
      </trkpt>
      <trkpt lat="41.0107700" lon="-2.6279000">
        <ele>993.8</ele>
        <time>2020-10-25T11:28:21Z</time>
      </trkpt>
      <trkpt lat="41.0108030" lon="-2.6278420">
        <ele>993.8</ele>
        <time>2020-10-25T11:28:28Z</time>
      </trkpt>
      <trkpt lat="41.0108520" lon="-2.6278040">
        <ele>993.8</ele>
        <time>2020-10-25T11:28:33Z</time>
      </trkpt>
      <trkpt lat="41.0108880" lon="-2.6277530">
        <ele>993.8</ele>
        <time>2020-10-25T11:28:38Z</time>
      </trkpt>
      <trkpt lat="41.0109260" lon="-2.6276990">
        <ele>993.8</ele>
        <time>2020-10-25T11:28:44Z</time>
      </trkpt>
      <trkpt lat="41.0109570" lon="-2.6276430">
        <ele>993.8</ele>
        <time>2020-10-25T11:28:51Z</time>
      </trkpt>
      <trkpt lat="41.0109950" lon="-2.6276130">
        <ele>993.6</ele>
        <time>2020-10-25T11:28:57Z</time>
      </trkpt>
      <trkpt lat="41.0110520" lon="-2.6275910">
        <ele>992.4</ele>
        <time>2020-10-25T11:29:07Z</time>
      </trkpt>
      <trkpt lat="41.0110980" lon="-2.6275510">
        <ele>992.4</ele>
        <time>2020-10-25T11:29:14Z</time>
      </trkpt>
      <trkpt lat="41.0111280" lon="-2.6274930">
        <ele>992.4</ele>
        <time>2020-10-25T11:29:20Z</time>
      </trkpt>
      <trkpt lat="41.0111590" lon="-2.6274420">
        <ele>992.4</ele>
        <time>2020-10-25T11:29:26Z</time>
      </trkpt>
      <trkpt lat="41.0112080" lon="-2.6273950">
        <ele>992.4</ele>
        <time>2020-10-25T11:29:33Z</time>
      </trkpt>
      <trkpt lat="41.0112330" lon="-2.6273430">
        <ele>992.4</ele>
        <time>2020-10-25T11:29:39Z</time>
      </trkpt>
      <trkpt lat="41.0112640" lon="-2.6272760">
        <ele>992.4</ele>
        <time>2020-10-25T11:29:46Z</time>
      </trkpt>
      <trkpt lat="41.0113000" lon="-2.6272300">
        <ele>992.4</ele>
        <time>2020-10-25T11:29:52Z</time>
      </trkpt>
      <trkpt lat="41.0113460" lon="-2.6271940">
        <ele>992.4</ele>
        <time>2020-10-25T11:29:58Z</time>
      </trkpt>
      <trkpt lat="41.0113890" lon="-2.6271480">
        <ele>993.6</ele>
        <time>2020-10-25T11:30:04Z</time>
      </trkpt>
      <trkpt lat="41.0114330" lon="-2.6270900">
        <ele>993.6</ele>
        <time>2020-10-25T11:30:10Z</time>
      </trkpt>
      <trkpt lat="41.0114660" lon="-2.6270250">
        <ele>993.6</ele>
        <time>2020-10-25T11:30:16Z</time>
      </trkpt>
      <trkpt lat="41.0115050" lon="-2.6269880">
        <ele>993.6</ele>
        <time>2020-10-25T11:30:20Z</time>
      </trkpt>
      <trkpt lat="41.0115710" lon="-2.6268220">
        <ele>995.4</ele>
        <time>2020-10-25T11:30:50Z</time>
      </trkpt>
      <trkpt lat="41.0116120" lon="-2.6267790">
        <ele>993.2</ele>
        <time>2020-10-25T11:31:01Z</time>
      </trkpt>
      <trkpt lat="41.0116530" lon="-2.6267350">
        <ele>993.2</ele>
        <time>2020-10-25T11:31:08Z</time>
      </trkpt>
      <trkpt lat="41.0116920" lon="-2.6266760">
        <ele>993.2</ele>
        <time>2020-10-25T11:31:19Z</time>
      </trkpt>
      <trkpt lat="41.0117150" lon="-2.6266130">
        <ele>993.2</ele>
        <time>2020-10-25T11:31:30Z</time>
      </trkpt>
      <trkpt lat="41.0117220" lon="-2.6265540">
        <ele>993.2</ele>
        <time>2020-10-25T11:31:39Z</time>
      </trkpt>
      <trkpt lat="41.0117530" lon="-2.6264990">
        <ele>993.2</ele>
        <time>2020-10-25T11:31:48Z</time>
      </trkpt>
      <trkpt lat="41.0117990" lon="-2.6264750">
        <ele>993.2</ele>
        <time>2020-10-25T11:31:57Z</time>
      </trkpt>
      <trkpt lat="41.0118220" lon="-2.6264080">
        <ele>993.2</ele>
        <time>2020-10-25T11:32:26Z</time>
      </trkpt>
      <trkpt lat="41.0118630" lon="-2.6263550">
        <ele>990.6</ele>
        <time>2020-10-25T11:33:55Z</time>
      </trkpt>
      <trkpt lat="41.0119170" lon="-2.6263610">
        <ele>990.6</ele>
        <time>2020-10-25T11:34:03Z</time>
      </trkpt>
      <trkpt lat="41.0120190" lon="-2.6262820">
        <ele>990.6</ele>
        <time>2020-10-25T11:34:17Z</time>
      </trkpt>
      <trkpt lat="41.0120350" lon="-2.6262170">
        <ele>990.6</ele>
        <time>2020-10-25T11:34:23Z</time>
      </trkpt>
      <trkpt lat="41.0120650" lon="-2.6261570">
        <ele>990.6</ele>
        <time>2020-10-25T11:34:30Z</time>
      </trkpt>
      <trkpt lat="41.0121730" lon="-2.6259650">
        <ele>990.6</ele>
        <time>2020-10-25T11:36:32Z</time>
      </trkpt>
      <trkpt lat="41.0122110" lon="-2.6259240">
        <ele>990.6</ele>
        <time>2020-10-25T11:36:39Z</time>
      </trkpt>
      <trkpt lat="41.0122570" lon="-2.6258770">
        <ele>990.6</ele>
        <time>2020-10-25T11:36:48Z</time>
      </trkpt>
      <trkpt lat="41.0122960" lon="-2.6258300">
        <ele>990.6</ele>
        <time>2020-10-25T11:36:55Z</time>
      </trkpt>
      <trkpt lat="41.0123190" lon="-2.6257570">
        <ele>990.6</ele>
        <time>2020-10-25T11:37:02Z</time>
      </trkpt>
      <trkpt lat="41.0123440" lon="-2.6256960">
        <ele>990.6</ele>
        <time>2020-10-25T11:37:09Z</time>
      </trkpt>
      <trkpt lat="41.0123750" lon="-2.6256380">
        <ele>990.6</ele>
        <time>2020-10-25T11:37:14Z</time>
      </trkpt>
      <trkpt lat="41.0124060" lon="-2.6255910">
        <ele>990.6</ele>
        <time>2020-10-25T11:37:19Z</time>
      </trkpt>
      <trkpt lat="41.0124540" lon="-2.6255410">
        <ele>990.6</ele>
        <time>2020-10-25T11:37:25Z</time>
      </trkpt>
      <trkpt lat="41.0124850" lon="-2.6254770">
        <ele>995.0</ele>
        <time>2020-10-25T11:37:31Z</time>
      </trkpt>
      <trkpt lat="41.0125290" lon="-2.6254400">
        <ele>995.0</ele>
        <time>2020-10-25T11:37:38Z</time>
      </trkpt>
      <trkpt lat="41.0125640" lon="-2.6253850">
        <ele>995.0</ele>
        <time>2020-10-25T11:37:58Z</time>
      </trkpt>
      <trkpt lat="41.0126080" lon="-2.6253380">
        <ele>993.8</ele>
        <time>2020-10-25T11:38:09Z</time>
      </trkpt>
      <trkpt lat="41.0126410" lon="-2.6252770">
        <ele>995.0</ele>
        <time>2020-10-25T11:38:17Z</time>
      </trkpt>
      <trkpt lat="41.0126460" lon="-2.6252270">
        <ele>995.0</ele>
        <time>2020-10-25T11:38:25Z</time>
      </trkpt>
      <trkpt lat="41.0126690" lon="-2.6249910">
        <ele>996.3</ele>
        <time>2020-10-25T11:39:16Z</time>
      </trkpt>
      <trkpt lat="41.0126620" lon="-2.6249250">
        <ele>996.3</ele>
        <time>2020-10-25T11:39:26Z</time>
      </trkpt>
      <trkpt lat="41.0126920" lon="-2.6248610">
        <ele>996.3</ele>
        <time>2020-10-25T11:39:34Z</time>
      </trkpt>
      <trkpt lat="41.0126870" lon="-2.6247420">
        <ele>996.3</ele>
        <time>2020-10-25T11:39:48Z</time>
      </trkpt>
      <trkpt lat="41.0126800" lon="-2.6246880">
        <ele>996.3</ele>
        <time>2020-10-25T11:39:54Z</time>
      </trkpt>
      <trkpt lat="41.0126770" lon="-2.6246090">
        <ele>996.3</ele>
        <time>2020-10-25T11:40:01Z</time>
      </trkpt>
      <trkpt lat="41.0126570" lon="-2.6245460">
        <ele>996.3</ele>
        <time>2020-10-25T11:40:06Z</time>
      </trkpt>
      <trkpt lat="41.0126460" lon="-2.6244600">
        <ele>996.3</ele>
        <time>2020-10-25T11:40:12Z</time>
      </trkpt>
      <trkpt lat="41.0126390" lon="-2.6243910">
        <ele>996.3</ele>
        <time>2020-10-25T11:40:16Z</time>
      </trkpt>
      <trkpt lat="41.0126230" lon="-2.6243260">
        <ele>996.3</ele>
        <time>2020-10-25T11:40:22Z</time>
      </trkpt>
      <trkpt lat="41.0126030" lon="-2.6242640">
        <ele>997.5</ele>
        <time>2020-10-25T11:40:29Z</time>
      </trkpt>
      <trkpt lat="41.0125720" lon="-2.6242020">
        <ele>997.5</ele>
        <time>2020-10-25T11:40:38Z</time>
      </trkpt>
      <trkpt lat="41.0125360" lon="-2.6241550">
        <ele>997.5</ele>
        <time>2020-10-25T11:40:44Z</time>
      </trkpt>
      <trkpt lat="41.0124930" lon="-2.6241040">
        <ele>997.5</ele>
        <time>2020-10-25T11:40:50Z</time>
      </trkpt>
      <trkpt lat="41.0124470" lon="-2.6240580">
        <ele>998.8</ele>
        <time>2020-10-25T11:40:56Z</time>
      </trkpt>
      <trkpt lat="41.0124080" lon="-2.6240110">
        <ele>1000.0</ele>
        <time>2020-10-25T11:41:02Z</time>
      </trkpt>
      <trkpt lat="41.0123620" lon="-2.6239680">
        <ele>1000.0</ele>
        <time>2020-10-25T11:41:07Z</time>
      </trkpt>
      <trkpt lat="41.0123260" lon="-2.6239260">
        <ele>1000.0</ele>
        <time>2020-10-25T11:41:12Z</time>
      </trkpt>
      <trkpt lat="41.0122960" lon="-2.6239130">
        <ele>997.9</ele>
        <time>2020-10-25T11:41:59Z</time>
      </trkpt>
      <trkpt lat="41.0122960" lon="-2.6239130">
        <ele>997.9</ele>
        <time>2020-10-25T11:42:00Z</time>
      </trkpt>
      <trkpt lat="41.0122960" lon="-2.6239130">
        <ele>997.9</ele>
        <time>2020-10-25T11:42:01Z</time>
      </trkpt>
      <trkpt lat="41.0122960" lon="-2.6239140">
        <ele>997.9</ele>
        <time>2020-10-25T11:42:02Z</time>
      </trkpt>
      <trkpt lat="41.0122960" lon="-2.6239140">
        <ele>997.9</ele>
        <time>2020-10-25T11:42:03Z</time>
      </trkpt>
      <trkpt lat="41.0122960" lon="-2.6239140">
        <ele>997.9</ele>
        <time>2020-10-25T11:42:04Z</time>
      </trkpt>
      <trkpt lat="41.0122960" lon="-2.6239140">
        <ele>997.9</ele>
        <time>2020-10-25T11:42:05Z</time>
      </trkpt>
      <trkpt lat="41.0122960" lon="-2.6239150">
        <ele>997.9</ele>
        <time>2020-10-25T11:42:06Z</time>
      </trkpt>
      <trkpt lat="41.0122980" lon="-2.6239150">
        <ele>997.9</ele>
        <time>2020-10-25T11:42:07Z</time>
      </trkpt>
      <trkpt lat="41.0122980" lon="-2.6239150">
        <ele>997.9</ele>
        <time>2020-10-25T11:42:08Z</time>
      </trkpt>
      <trkpt lat="41.0123030" lon="-2.6239150">
        <ele>997.9</ele>
        <time>2020-10-25T11:42:09Z</time>
      </trkpt>
      <trkpt lat="41.0123030" lon="-2.6239150">
        <ele>997.9</ele>
        <time>2020-10-25T11:42:10Z</time>
      </trkpt>
      <trkpt lat="41.0123030" lon="-2.6239130">
        <ele>997.9</ele>
        <time>2020-10-25T11:42:26Z</time>
      </trkpt>
      <trkpt lat="41.0123030" lon="-2.6239130">
        <ele>997.9</ele>
        <time>2020-10-25T11:42:27Z</time>
      </trkpt>
      <trkpt lat="41.0123030" lon="-2.6239130">
        <ele>997.9</ele>
        <time>2020-10-25T11:42:28Z</time>
      </trkpt>
      <trkpt lat="41.0122980" lon="-2.6239120">
        <ele>999.3</ele>
        <time>2020-10-25T11:42:29Z</time>
      </trkpt>
      <trkpt lat="41.0122910" lon="-2.6239030">
        <ele>999.3</ele>
        <time>2020-10-25T11:42:33Z</time>
      </trkpt>
      <trkpt lat="41.0122910" lon="-2.6239020">
        <ele>999.3</ele>
        <time>2020-10-25T11:42:34Z</time>
      </trkpt>
      <trkpt lat="41.0122880" lon="-2.6238980">
        <ele>1000.4</ele>
        <time>2020-10-25T11:42:35Z</time>
      </trkpt>
      <trkpt lat="41.0122830" lon="-2.6238920">
        <ele>1000.4</ele>
        <time>2020-10-25T11:42:36Z</time>
      </trkpt>
      <trkpt lat="41.0122750" lon="-2.6238820">
        <ele>1000.4</ele>
        <time>2020-10-25T11:42:37Z</time>
      </trkpt>
      <trkpt lat="41.0122650" lon="-2.6238700">
        <ele>1000.4</ele>
        <time>2020-10-25T11:42:38Z</time>
      </trkpt>
      <trkpt lat="41.0122520" lon="-2.6238540">
        <ele>1000.4</ele>
        <time>2020-10-25T11:42:39Z</time>
      </trkpt>
      <trkpt lat="41.0122370" lon="-2.6238370">
        <ele>1000.4</ele>
        <time>2020-10-25T11:42:40Z</time>
      </trkpt>
      <trkpt lat="41.0121960" lon="-2.6237930">
        <ele>1001.6</ele>
        <time>2020-10-25T11:42:43Z</time>
      </trkpt>
      <trkpt lat="41.0121600" lon="-2.6237510">
        <ele>1001.6</ele>
        <time>2020-10-25T11:42:47Z</time>
      </trkpt>
      <trkpt lat="41.0121190" lon="-2.6237010">
        <ele>1001.6</ele>
        <time>2020-10-25T11:42:52Z</time>
      </trkpt>
      <trkpt lat="41.0120930" lon="-2.6236430">
        <ele>1001.6</ele>
        <time>2020-10-25T11:42:58Z</time>
      </trkpt>
      <trkpt lat="41.0120730" lon="-2.6235750">
        <ele>1001.6</ele>
        <time>2020-10-25T11:43:03Z</time>
      </trkpt>
      <trkpt lat="41.0120400" lon="-2.6235120">
        <ele>1001.6</ele>
        <time>2020-10-25T11:43:07Z</time>
      </trkpt>
      <trkpt lat="41.0120120" lon="-2.6234460">
        <ele>1001.6</ele>
        <time>2020-10-25T11:43:12Z</time>
      </trkpt>
      <trkpt lat="41.0119940" lon="-2.6233770">
        <ele>1003.0</ele>
        <time>2020-10-25T11:43:17Z</time>
      </trkpt>
      <trkpt lat="41.0119630" lon="-2.6233100">
        <ele>1003.0</ele>
        <time>2020-10-25T11:43:23Z</time>
      </trkpt>
      <trkpt lat="41.0119400" lon="-2.6232470">
        <ele>1003.0</ele>
        <time>2020-10-25T11:43:30Z</time>
      </trkpt>
      <trkpt lat="41.0119090" lon="-2.6231760">
        <ele>1003.0</ele>
        <time>2020-10-25T11:43:36Z</time>
      </trkpt>
      <trkpt lat="41.0118760" lon="-2.6231310">
        <ele>1003.0</ele>
        <time>2020-10-25T11:43:41Z</time>
      </trkpt>
      <trkpt lat="41.0118370" lon="-2.6230770">
        <ele>1004.2</ele>
        <time>2020-10-25T11:43:47Z</time>
      </trkpt>
      <trkpt lat="41.0118020" lon="-2.6230180">
        <ele>1004.2</ele>
        <time>2020-10-25T11:43:54Z</time>
      </trkpt>
      <trkpt lat="41.0117660" lon="-2.6229780">
        <ele>1005.4</ele>
        <time>2020-10-25T11:43:59Z</time>
      </trkpt>
      <trkpt lat="41.0117070" lon="-2.6229420">
        <ele>1005.4</ele>
        <time>2020-10-25T11:44:05Z</time>
      </trkpt>
      <trkpt lat="41.0116660" lon="-2.6229050">
        <ele>1006.7</ele>
        <time>2020-10-25T11:44:11Z</time>
      </trkpt>
      <trkpt lat="41.0116200" lon="-2.6228620">
        <ele>1008.0</ele>
        <time>2020-10-25T11:44:17Z</time>
      </trkpt>
      <trkpt lat="41.0115890" lon="-2.6228160">
        <ele>1008.0</ele>
        <time>2020-10-25T11:44:22Z</time>
      </trkpt>
      <trkpt lat="41.0115660" lon="-2.6227450">
        <ele>1003.0</ele>
        <time>2020-10-25T11:44:28Z</time>
      </trkpt>
      <trkpt lat="41.0115330" lon="-2.6226860">
        <ele>1003.0</ele>
        <time>2020-10-25T11:44:33Z</time>
      </trkpt>
      <trkpt lat="41.0115100" lon="-2.6226210">
        <ele>1003.0</ele>
        <time>2020-10-25T11:44:41Z</time>
      </trkpt>
      <trkpt lat="41.0114660" lon="-2.6225730">
        <ele>1003.0</ele>
        <time>2020-10-25T11:44:48Z</time>
      </trkpt>
      <trkpt lat="41.0114250" lon="-2.6225300">
        <ele>1003.0</ele>
        <time>2020-10-25T11:44:54Z</time>
      </trkpt>
      <trkpt lat="41.0113870" lon="-2.6224790">
        <ele>1003.0</ele>
        <time>2020-10-25T11:45:00Z</time>
      </trkpt>
      <trkpt lat="41.0113480" lon="-2.6224180">
        <ele>1003.0</ele>
        <time>2020-10-25T11:45:08Z</time>
      </trkpt>
      <trkpt lat="41.0113150" lon="-2.6223660">
        <ele>1003.0</ele>
        <time>2020-10-25T11:45:14Z</time>
      </trkpt>
      <trkpt lat="41.0112770" lon="-2.6223070">
        <ele>1003.0</ele>
        <time>2020-10-25T11:45:21Z</time>
      </trkpt>
      <trkpt lat="41.0112330" lon="-2.6222600">
        <ele>1003.0</ele>
        <time>2020-10-25T11:45:29Z</time>
      </trkpt>
      <trkpt lat="41.0111900" lon="-2.6222090">
        <ele>1001.8</ele>
        <time>2020-10-25T11:45:35Z</time>
      </trkpt>
      <trkpt lat="41.0111460" lon="-2.6221620">
        <ele>1001.8</ele>
        <time>2020-10-25T11:45:40Z</time>
      </trkpt>
      <trkpt lat="41.0111130" lon="-2.6221000">
        <ele>1001.8</ele>
        <time>2020-10-25T11:45:45Z</time>
      </trkpt>
      <trkpt lat="41.0110750" lon="-2.6220320">
        <ele>1001.8</ele>
        <time>2020-10-25T11:45:51Z</time>
      </trkpt>
      <trkpt lat="41.0110280" lon="-2.6219840">
        <ele>1001.8</ele>
        <time>2020-10-25T11:45:57Z</time>
      </trkpt>
      <trkpt lat="41.0109900" lon="-2.6219490">
        <ele>1001.8</ele>
        <time>2020-10-25T11:46:03Z</time>
      </trkpt>
      <trkpt lat="41.0109490" lon="-2.6219070">
        <ele>1001.8</ele>
        <time>2020-10-25T11:46:12Z</time>
      </trkpt>
      <trkpt lat="41.0109130" lon="-2.6218430">
        <ele>1001.8</ele>
        <time>2020-10-25T11:46:18Z</time>
      </trkpt>
      <trkpt lat="41.0108980" lon="-2.6217840">
        <ele>999.8</ele>
        <time>2020-10-25T11:46:25Z</time>
      </trkpt>
      <trkpt lat="41.0108800" lon="-2.6217120">
        <ele>1001.0</ele>
        <time>2020-10-25T11:46:32Z</time>
      </trkpt>
      <trkpt lat="41.0108440" lon="-2.6216470">
        <ele>999.9</ele>
        <time>2020-10-25T11:46:37Z</time>
      </trkpt>
      <trkpt lat="41.0108130" lon="-2.6215980">
        <ele>999.9</ele>
        <time>2020-10-25T11:46:42Z</time>
      </trkpt>
      <trkpt lat="41.0107880" lon="-2.6215270">
        <ele>999.9</ele>
        <time>2020-10-25T11:46:48Z</time>
      </trkpt>
      <trkpt lat="41.0107470" lon="-2.6214700">
        <ele>999.9</ele>
        <time>2020-10-25T11:46:56Z</time>
      </trkpt>
      <trkpt lat="41.0107080" lon="-2.6214200">
        <ele>999.9</ele>
        <time>2020-10-25T11:47:02Z</time>
      </trkpt>
      <trkpt lat="41.0106800" lon="-2.6213480">
        <ele>999.9</ele>
        <time>2020-10-25T11:47:07Z</time>
      </trkpt>
      <trkpt lat="41.0106550" lon="-2.6212830">
        <ele>999.9</ele>
        <time>2020-10-25T11:47:13Z</time>
      </trkpt>
      <trkpt lat="41.0106270" lon="-2.6212370">
        <ele>999.9</ele>
        <time>2020-10-25T11:47:18Z</time>
      </trkpt>
      <trkpt lat="41.0105910" lon="-2.6211860">
        <ele>999.9</ele>
        <time>2020-10-25T11:47:26Z</time>
      </trkpt>
      <trkpt lat="41.0105550" lon="-2.6211150">
        <ele>998.7</ele>
        <time>2020-10-25T11:47:32Z</time>
      </trkpt>
      <trkpt lat="41.0105290" lon="-2.6210620">
        <ele>998.7</ele>
        <time>2020-10-25T11:47:37Z</time>
      </trkpt>
      <trkpt lat="41.0105060" lon="-2.6210040">
        <ele>999.9</ele>
        <time>2020-10-25T11:47:43Z</time>
      </trkpt>
      <trkpt lat="41.0104830" lon="-2.6209370">
        <ele>999.9</ele>
        <time>2020-10-25T11:47:50Z</time>
      </trkpt>
      <trkpt lat="41.0104680" lon="-2.6208630">
        <ele>999.9</ele>
        <time>2020-10-25T11:47:58Z</time>
      </trkpt>
      <trkpt lat="41.0104600" lon="-2.6207980">
        <ele>999.9</ele>
        <time>2020-10-25T11:48:03Z</time>
      </trkpt>
      <trkpt lat="41.0104470" lon="-2.6207250">
        <ele>999.9</ele>
        <time>2020-10-25T11:48:08Z</time>
      </trkpt>
      <trkpt lat="41.0104290" lon="-2.6206630">
        <ele>998.7</ele>
        <time>2020-10-25T11:48:15Z</time>
      </trkpt>
      <trkpt lat="41.0104120" lon="-2.6206020">
        <ele>998.7</ele>
        <time>2020-10-25T11:48:21Z</time>
      </trkpt>
      <trkpt lat="41.0103730" lon="-2.6205470">
        <ele>994.8</ele>
        <time>2020-10-25T11:48:28Z</time>
      </trkpt>
      <trkpt lat="41.0103600" lon="-2.6204820">
        <ele>994.8</ele>
        <time>2020-10-25T11:48:35Z</time>
      </trkpt>
      <trkpt lat="41.0103990" lon="-2.6204350">
        <ele>994.8</ele>
        <time>2020-10-25T11:48:44Z</time>
      </trkpt>
      <trkpt lat="41.0104140" lon="-2.6203720">
        <ele>994.8</ele>
        <time>2020-10-25T11:48:53Z</time>
      </trkpt>
      <trkpt lat="41.0104060" lon="-2.6203050">
        <ele>994.8</ele>
        <time>2020-10-25T11:49:03Z</time>
      </trkpt>
      <trkpt lat="41.0104370" lon="-2.6201300">
        <ele>994.8</ele>
        <time>2020-10-25T11:49:26Z</time>
      </trkpt>
      <trkpt lat="41.0106880" lon="-2.6201580">
        <ele>993.6</ele>
        <time>2020-10-25T11:52:22Z</time>
      </trkpt>
      <trkpt lat="41.0107110" lon="-2.6202180">
        <ele>993.6</ele>
        <time>2020-10-25T11:52:26Z</time>
      </trkpt>
      <trkpt lat="41.0107190" lon="-2.6202840">
        <ele>993.6</ele>
        <time>2020-10-25T11:52:32Z</time>
      </trkpt>
      <trkpt lat="41.0107340" lon="-2.6203480">
        <ele>993.6</ele>
        <time>2020-10-25T11:52:38Z</time>
      </trkpt>
      <trkpt lat="41.0107700" lon="-2.6203960">
        <ele>993.6</ele>
        <time>2020-10-25T11:52:48Z</time>
      </trkpt>
      <trkpt lat="41.0108570" lon="-2.6204640">
        <ele>993.6</ele>
        <time>2020-10-25T11:53:56Z</time>
      </trkpt>
      <trkpt lat="41.0108800" lon="-2.6205500">
        <ele>993.6</ele>
        <time>2020-10-25T11:54:02Z</time>
      </trkpt>
      <trkpt lat="41.0109030" lon="-2.6206280">
        <ele>993.6</ele>
        <time>2020-10-25T11:54:06Z</time>
      </trkpt>
      <trkpt lat="41.0109130" lon="-2.6206850">
        <ele>993.6</ele>
        <time>2020-10-25T11:54:10Z</time>
      </trkpt>
      <trkpt lat="41.0109340" lon="-2.6207530">
        <ele>993.6</ele>
        <time>2020-10-25T11:54:16Z</time>
      </trkpt>
      <trkpt lat="41.0109640" lon="-2.6208130">
        <ele>993.6</ele>
        <time>2020-10-25T11:54:22Z</time>
      </trkpt>
      <trkpt lat="41.0109950" lon="-2.6208650">
        <ele>993.6</ele>
        <time>2020-10-25T11:54:27Z</time>
      </trkpt>
      <trkpt lat="41.0110080" lon="-2.6209320">
        <ele>993.6</ele>
        <time>2020-10-25T11:54:35Z</time>
      </trkpt>
      <trkpt lat="41.0110230" lon="-2.6209950">
        <ele>993.6</ele>
        <time>2020-10-25T11:54:42Z</time>
      </trkpt>
      <trkpt lat="41.0110620" lon="-2.6210670">
        <ele>993.6</ele>
        <time>2020-10-25T11:54:47Z</time>
      </trkpt>
      <trkpt lat="41.0110980" lon="-2.6211410">
        <ele>993.6</ele>
        <time>2020-10-25T11:54:52Z</time>
      </trkpt>
      <trkpt lat="41.0111230" lon="-2.6212040">
        <ele>993.6</ele>
        <time>2020-10-25T11:54:57Z</time>
      </trkpt>
      <trkpt lat="41.0111620" lon="-2.6212490">
        <ele>993.6</ele>
        <time>2020-10-25T11:55:06Z</time>
      </trkpt>
      <trkpt lat="41.0112080" lon="-2.6213090">
        <ele>993.6</ele>
        <time>2020-10-25T11:55:13Z</time>
      </trkpt>
      <trkpt lat="41.0112410" lon="-2.6213550">
        <ele>993.6</ele>
        <time>2020-10-25T11:55:19Z</time>
      </trkpt>
      <trkpt lat="41.0112720" lon="-2.6214250">
        <ele>993.6</ele>
        <time>2020-10-25T11:55:30Z</time>
      </trkpt>
      <trkpt lat="41.0112840" lon="-2.6214920">
        <ele>993.6</ele>
        <time>2020-10-25T11:55:36Z</time>
      </trkpt>
      <trkpt lat="41.0113230" lon="-2.6215350">
        <ele>993.6</ele>
        <time>2020-10-25T11:55:43Z</time>
      </trkpt>
      <trkpt lat="41.0113790" lon="-2.6215200">
        <ele>993.6</ele>
        <time>2020-10-25T11:55:50Z</time>
      </trkpt>
      <trkpt lat="41.0114180" lon="-2.6214890">
        <ele>993.6</ele>
        <time>2020-10-25T11:55:56Z</time>
      </trkpt>
      <trkpt lat="41.0114710" lon="-2.6214530">
        <ele>993.6</ele>
        <time>2020-10-25T11:56:08Z</time>
      </trkpt>
      <trkpt lat="41.0115050" lon="-2.6214390">
        <ele>994.9</ele>
        <time>2020-10-25T11:56:17Z</time>
      </trkpt>
      <trkpt lat="41.0115580" lon="-2.6214690">
        <ele>994.9</ele>
        <time>2020-10-25T11:56:27Z</time>
      </trkpt>
      <trkpt lat="41.0116040" lon="-2.6215200">
        <ele>994.9</ele>
        <time>2020-10-25T11:56:33Z</time>
      </trkpt>
      <trkpt lat="41.0116430" lon="-2.6215590">
        <ele>994.9</ele>
        <time>2020-10-25T11:56:38Z</time>
      </trkpt>
      <trkpt lat="41.0116970" lon="-2.6215930">
        <ele>996.0</ele>
        <time>2020-10-25T11:56:43Z</time>
      </trkpt>
      <trkpt lat="41.0117270" lon="-2.6216320">
        <ele>996.0</ele>
        <time>2020-10-25T11:56:49Z</time>
      </trkpt>
      <trkpt lat="41.0117760" lon="-2.6216670">
        <ele>996.0</ele>
        <time>2020-10-25T11:56:56Z</time>
      </trkpt>
      <trkpt lat="41.0118140" lon="-2.6217220">
        <ele>996.0</ele>
        <time>2020-10-25T11:57:03Z</time>
      </trkpt>
      <trkpt lat="41.0118600" lon="-2.6217590">
        <ele>996.0</ele>
        <time>2020-10-25T11:57:09Z</time>
      </trkpt>
      <trkpt lat="41.0118840" lon="-2.6218090">
        <ele>996.0</ele>
        <time>2020-10-25T11:57:16Z</time>
      </trkpt>
      <trkpt lat="41.0119090" lon="-2.6218410">
        <ele>996.0</ele>
        <time>2020-10-25T11:58:03Z</time>
      </trkpt>
      <trkpt lat="41.0119530" lon="-2.6219170">
        <ele>996.0</ele>
        <time>2020-10-25T11:58:08Z</time>
      </trkpt>
      <trkpt lat="41.0119780" lon="-2.6219610">
        <ele>996.0</ele>
        <time>2020-10-25T11:58:11Z</time>
      </trkpt>
      <trkpt lat="41.0120270" lon="-2.6220080">
        <ele>994.0</ele>
        <time>2020-10-25T11:58:17Z</time>
      </trkpt>
      <trkpt lat="41.0120580" lon="-2.6220540">
        <ele>1000.7</ele>
        <time>2020-10-25T11:58:21Z</time>
      </trkpt>
      <trkpt lat="41.0120960" lon="-2.6221080">
        <ele>1000.7</ele>
        <time>2020-10-25T11:58:27Z</time>
      </trkpt>
      <trkpt lat="41.0121470" lon="-2.6221380">
        <ele>1000.7</ele>
        <time>2020-10-25T11:58:34Z</time>
      </trkpt>
      <trkpt lat="41.0121880" lon="-2.6221440">
        <ele>1000.7</ele>
        <time>2020-10-25T11:58:42Z</time>
      </trkpt>
      <trkpt lat="41.0122290" lon="-2.6222150">
        <ele>1000.7</ele>
        <time>2020-10-25T11:58:49Z</time>
      </trkpt>
      <trkpt lat="41.0122520" lon="-2.6222580">
        <ele>1000.7</ele>
        <time>2020-10-25T11:58:53Z</time>
      </trkpt>
      <trkpt lat="41.0122750" lon="-2.6223330">
        <ele>1000.7</ele>
        <time>2020-10-25T11:59:01Z</time>
      </trkpt>
      <trkpt lat="41.0122980" lon="-2.6223920">
        <ele>1000.7</ele>
        <time>2020-10-25T11:59:07Z</time>
      </trkpt>
      <trkpt lat="41.0123420" lon="-2.6224340">
        <ele>1000.7</ele>
        <time>2020-10-25T11:59:13Z</time>
      </trkpt>
      <trkpt lat="41.0123900" lon="-2.6224550">
        <ele>1002.0</ele>
        <time>2020-10-25T11:59:18Z</time>
      </trkpt>
      <trkpt lat="41.0124290" lon="-2.6224990">
        <ele>1002.0</ele>
        <time>2020-10-25T11:59:24Z</time>
      </trkpt>
      <trkpt lat="41.0125060" lon="-2.6226180">
        <ele>1002.0</ele>
        <time>2020-10-25T12:00:50Z</time>
      </trkpt>
      <trkpt lat="41.0125470" lon="-2.6226990">
        <ele>1002.0</ele>
        <time>2020-10-25T12:00:55Z</time>
      </trkpt>
      <trkpt lat="41.0125770" lon="-2.6227670">
        <ele>1002.0</ele>
        <time>2020-10-25T12:00:58Z</time>
      </trkpt>
      <trkpt lat="41.0125950" lon="-2.6228230">
        <ele>1002.0</ele>
        <time>2020-10-25T12:01:01Z</time>
      </trkpt>
      <trkpt lat="41.0126160" lon="-2.6228770">
        <ele>1002.0</ele>
        <time>2020-10-25T12:01:05Z</time>
      </trkpt>
      <trkpt lat="41.0126620" lon="-2.6229520">
        <ele>1002.0</ele>
        <time>2020-10-25T12:01:19Z</time>
      </trkpt>
      <trkpt lat="41.0126800" lon="-2.6229850">
        <ele>1002.0</ele>
        <time>2020-10-25T12:01:30Z</time>
      </trkpt>
      <trkpt lat="41.0127160" lon="-2.6230430">
        <ele>1002.0</ele>
        <time>2020-10-25T12:01:37Z</time>
      </trkpt>
      <trkpt lat="41.0127440" lon="-2.6230980">
        <ele>1002.0</ele>
        <time>2020-10-25T12:01:42Z</time>
      </trkpt>
      <trkpt lat="41.0127800" lon="-2.6231500">
        <ele>1002.0</ele>
        <time>2020-10-25T12:01:48Z</time>
      </trkpt>
      <trkpt lat="41.0128050" lon="-2.6232090">
        <ele>1002.0</ele>
        <time>2020-10-25T12:01:56Z</time>
      </trkpt>
      <trkpt lat="41.0128330" lon="-2.6232710">
        <ele>1002.0</ele>
        <time>2020-10-25T12:02:03Z</time>
      </trkpt>
      <trkpt lat="41.0128590" lon="-2.6233310">
        <ele>1002.0</ele>
        <time>2020-10-25T12:02:09Z</time>
      </trkpt>
      <trkpt lat="41.0128870" lon="-2.6234000">
        <ele>1002.0</ele>
        <time>2020-10-25T12:02:15Z</time>
      </trkpt>
      <trkpt lat="41.0129050" lon="-2.6234590">
        <ele>1002.0</ele>
        <time>2020-10-25T12:02:20Z</time>
      </trkpt>
      <trkpt lat="41.0129280" lon="-2.6235210">
        <ele>1002.0</ele>
        <time>2020-10-25T12:02:25Z</time>
      </trkpt>
      <trkpt lat="41.0129380" lon="-2.6235990">
        <ele>1002.0</ele>
        <time>2020-10-25T12:02:33Z</time>
      </trkpt>
      <trkpt lat="41.0129610" lon="-2.6236650">
        <ele>1002.0</ele>
        <time>2020-10-25T12:02:39Z</time>
      </trkpt>
      <trkpt lat="41.0129840" lon="-2.6237290">
        <ele>1002.0</ele>
        <time>2020-10-25T12:02:44Z</time>
      </trkpt>
      <trkpt lat="41.0130070" lon="-2.6237790">
        <ele>1002.0</ele>
        <time>2020-10-25T12:02:49Z</time>
      </trkpt>
      <trkpt lat="41.0130380" lon="-2.6238000">
        <ele>1002.0</ele>
        <time>2020-10-25T12:03:21Z</time>
      </trkpt>
      <trkpt lat="41.0130590" lon="-2.6238790">
        <ele>1009.8</ele>
        <time>2020-10-25T12:03:27Z</time>
      </trkpt>
      <trkpt lat="41.0130690" lon="-2.6239440">
        <ele>1009.8</ele>
        <time>2020-10-25T12:03:32Z</time>
      </trkpt>
      <trkpt lat="41.0130920" lon="-2.6239920">
        <ele>1009.8</ele>
        <time>2020-10-25T12:03:37Z</time>
      </trkpt>
      <trkpt lat="41.0130970" lon="-2.6240690">
        <ele>1009.8</ele>
        <time>2020-10-25T12:03:44Z</time>
      </trkpt>
      <trkpt lat="41.0130840" lon="-2.6241680">
        <ele>1009.8</ele>
        <time>2020-10-25T12:04:03Z</time>
      </trkpt>
      <trkpt lat="41.0130690" lon="-2.6242330">
        <ele>1009.8</ele>
        <time>2020-10-25T12:04:11Z</time>
      </trkpt>
      <trkpt lat="41.0130360" lon="-2.6242930">
        <ele>1009.8</ele>
        <time>2020-10-25T12:04:21Z</time>
      </trkpt>
      <trkpt lat="41.0130300" lon="-2.6243580">
        <ele>1009.8</ele>
        <time>2020-10-25T12:04:27Z</time>
      </trkpt>
      <trkpt lat="41.0130360" lon="-2.6244360">
        <ele>1009.8</ele>
        <time>2020-10-25T12:04:33Z</time>
      </trkpt>
      <trkpt lat="41.0130430" lon="-2.6245080">
        <ele>1008.6</ele>
        <time>2020-10-25T12:04:40Z</time>
      </trkpt>
      <trkpt lat="41.0130510" lon="-2.6245900">
        <ele>1008.6</ele>
        <time>2020-10-25T12:04:46Z</time>
      </trkpt>
      <trkpt lat="41.0129380" lon="-2.6246670">
        <ele>1008.6</ele>
        <time>2020-10-25T12:06:16Z</time>
      </trkpt>
      <trkpt lat="41.0129590" lon="-2.6247390">
        <ele>1008.6</ele>
        <time>2020-10-25T12:06:24Z</time>
      </trkpt>
      <trkpt lat="41.0129610" lon="-2.6248080">
        <ele>1008.6</ele>
        <time>2020-10-25T12:06:29Z</time>
      </trkpt>
      <trkpt lat="41.0129660" lon="-2.6248800">
        <ele>1008.6</ele>
        <time>2020-10-25T12:06:35Z</time>
      </trkpt>
      <trkpt lat="41.0129840" lon="-2.6249460">
        <ele>1008.6</ele>
        <time>2020-10-25T12:06:40Z</time>
      </trkpt>
      <trkpt lat="41.0130070" lon="-2.6250140">
        <ele>1008.6</ele>
        <time>2020-10-25T12:06:45Z</time>
      </trkpt>
      <trkpt lat="41.0130280" lon="-2.6250690">
        <ele>1008.6</ele>
        <time>2020-10-25T12:06:49Z</time>
      </trkpt>
      <trkpt lat="41.0130430" lon="-2.6251400">
        <ele>1007.0</ele>
        <time>2020-10-25T12:06:55Z</time>
      </trkpt>
      <trkpt lat="41.0130460" lon="-2.6252050">
        <ele>1008.2</ele>
        <time>2020-10-25T12:07:00Z</time>
      </trkpt>
      <trkpt lat="41.0130300" lon="-2.6252870">
        <ele>1009.4</ele>
        <time>2020-10-25T12:07:07Z</time>
      </trkpt>
      <trkpt lat="41.0130280" lon="-2.6253480">
        <ele>1010.7</ele>
        <time>2020-10-25T12:07:12Z</time>
      </trkpt>
      <trkpt lat="41.0130150" lon="-2.6254170">
        <ele>1010.7</ele>
        <time>2020-10-25T12:07:18Z</time>
      </trkpt>
      <trkpt lat="41.0130150" lon="-2.6254950">
        <ele>1011.9</ele>
        <time>2020-10-25T12:07:24Z</time>
      </trkpt>
      <trkpt lat="41.0130150" lon="-2.6255650">
        <ele>1011.9</ele>
        <time>2020-10-25T12:07:29Z</time>
      </trkpt>
      <trkpt lat="41.0130150" lon="-2.6256330">
        <ele>1011.9</ele>
        <time>2020-10-25T12:07:34Z</time>
      </trkpt>
      <trkpt lat="41.0129970" lon="-2.6257010">
        <ele>1011.9</ele>
        <time>2020-10-25T12:07:40Z</time>
      </trkpt>
      <trkpt lat="41.0129920" lon="-2.6257610">
        <ele>1011.9</ele>
        <time>2020-10-25T12:07:44Z</time>
      </trkpt>
      <trkpt lat="41.0129820" lon="-2.6258400">
        <ele>1013.2</ele>
        <time>2020-10-25T12:07:50Z</time>
      </trkpt>
      <trkpt lat="41.0129590" lon="-2.6258980">
        <ele>1013.2</ele>
        <time>2020-10-25T12:07:55Z</time>
      </trkpt>
      <trkpt lat="41.0129510" lon="-2.6259640">
        <ele>1013.2</ele>
        <time>2020-10-25T12:08:00Z</time>
      </trkpt>
      <trkpt lat="41.0129180" lon="-2.6260160">
        <ele>1014.3</ele>
        <time>2020-10-25T12:08:06Z</time>
      </trkpt>
      <trkpt lat="41.0128870" lon="-2.6260790">
        <ele>1014.3</ele>
        <time>2020-10-25T12:08:12Z</time>
      </trkpt>
      <trkpt lat="41.0128640" lon="-2.6261390">
        <ele>1014.3</ele>
        <time>2020-10-25T12:08:17Z</time>
      </trkpt>
      <trkpt lat="41.0128510" lon="-2.6262210">
        <ele>1014.3</ele>
        <time>2020-10-25T12:08:22Z</time>
      </trkpt>
      <trkpt lat="41.0128440" lon="-2.6262930">
        <ele>1014.3</ele>
        <time>2020-10-25T12:08:27Z</time>
      </trkpt>
      <trkpt lat="41.0128200" lon="-2.6263590">
        <ele>1014.3</ele>
        <time>2020-10-25T12:08:33Z</time>
      </trkpt>
      <trkpt lat="41.0128130" lon="-2.6264270">
        <ele>1014.3</ele>
        <time>2020-10-25T12:08:37Z</time>
      </trkpt>
      <trkpt lat="41.0127950" lon="-2.6264930">
        <ele>1014.3</ele>
        <time>2020-10-25T12:08:42Z</time>
      </trkpt>
      <trkpt lat="41.0127800" lon="-2.6265650">
        <ele>1014.3</ele>
        <time>2020-10-25T12:08:47Z</time>
      </trkpt>
      <trkpt lat="41.0127560" lon="-2.6266260">
        <ele>1014.3</ele>
        <time>2020-10-25T12:08:52Z</time>
      </trkpt>
      <trkpt lat="41.0127260" lon="-2.6266780">
        <ele>1014.3</ele>
        <time>2020-10-25T12:08:57Z</time>
      </trkpt>
      <trkpt lat="41.0126850" lon="-2.6267300">
        <ele>1014.3</ele>
        <time>2020-10-25T12:09:03Z</time>
      </trkpt>
      <trkpt lat="41.0126570" lon="-2.6267880">
        <ele>1006.6</ele>
        <time>2020-10-25T12:09:09Z</time>
      </trkpt>
      <trkpt lat="41.0126180" lon="-2.6268460">
        <ele>1006.6</ele>
        <time>2020-10-25T12:09:16Z</time>
      </trkpt>
      <trkpt lat="41.0125800" lon="-2.6268850">
        <ele>1005.3</ele>
        <time>2020-10-25T12:09:23Z</time>
      </trkpt>
      <trkpt lat="41.0125360" lon="-2.6269090">
        <ele>1005.3</ele>
        <time>2020-10-25T12:09:31Z</time>
      </trkpt>
      <trkpt lat="41.0124770" lon="-2.6269490">
        <ele>1005.3</ele>
        <time>2020-10-25T12:09:38Z</time>
      </trkpt>
      <trkpt lat="41.0124310" lon="-2.6269740">
        <ele>1005.3</ele>
        <time>2020-10-25T12:09:43Z</time>
      </trkpt>
      <trkpt lat="41.0123830" lon="-2.6270090">
        <ele>1004.2</ele>
        <time>2020-10-25T12:09:49Z</time>
      </trkpt>
      <trkpt lat="41.0123440" lon="-2.6270500">
        <ele>1004.2</ele>
        <time>2020-10-25T12:09:55Z</time>
      </trkpt>
      <trkpt lat="41.0123060" lon="-2.6271110">
        <ele>1003.0</ele>
        <time>2020-10-25T12:10:02Z</time>
      </trkpt>
      <trkpt lat="41.0122650" lon="-2.6271530">
        <ele>1003.0</ele>
        <time>2020-10-25T12:10:08Z</time>
      </trkpt>
      <trkpt lat="41.0122210" lon="-2.6271970">
        <ele>1001.8</ele>
        <time>2020-10-25T12:10:14Z</time>
      </trkpt>
      <trkpt lat="41.0121880" lon="-2.6272450">
        <ele>1001.8</ele>
        <time>2020-10-25T12:10:19Z</time>
      </trkpt>
      <trkpt lat="41.0121550" lon="-2.6273070">
        <ele>1001.8</ele>
        <time>2020-10-25T12:10:25Z</time>
      </trkpt>
      <trkpt lat="41.0121240" lon="-2.6273670">
        <ele>1001.8</ele>
        <time>2020-10-25T12:10:30Z</time>
      </trkpt>
      <trkpt lat="41.0120930" lon="-2.6274290">
        <ele>1001.8</ele>
        <time>2020-10-25T12:10:35Z</time>
      </trkpt>
      <trkpt lat="41.0120630" lon="-2.6274850">
        <ele>1001.8</ele>
        <time>2020-10-25T12:10:40Z</time>
      </trkpt>
      <trkpt lat="41.0120350" lon="-2.6275420">
        <ele>1001.8</ele>
        <time>2020-10-25T12:10:45Z</time>
      </trkpt>
      <trkpt lat="41.0120010" lon="-2.6275980">
        <ele>1001.8</ele>
        <time>2020-10-25T12:10:50Z</time>
      </trkpt>
      <trkpt lat="41.0119780" lon="-2.6276570">
        <ele>1003.3</ele>
        <time>2020-10-25T12:10:55Z</time>
      </trkpt>
      <trkpt lat="41.0119480" lon="-2.6277190">
        <ele>1003.3</ele>
        <time>2020-10-25T12:11:01Z</time>
      </trkpt>
      <trkpt lat="41.0119070" lon="-2.6277640">
        <ele>1003.3</ele>
        <time>2020-10-25T12:11:06Z</time>
      </trkpt>
      <trkpt lat="41.0118600" lon="-2.6278050">
        <ele>1003.3</ele>
        <time>2020-10-25T12:11:12Z</time>
      </trkpt>
      <trkpt lat="41.0118220" lon="-2.6278590">
        <ele>1003.3</ele>
        <time>2020-10-25T12:11:17Z</time>
      </trkpt>
      <trkpt lat="41.0117790" lon="-2.6279100">
        <ele>1003.3</ele>
        <time>2020-10-25T12:11:22Z</time>
      </trkpt>
      <trkpt lat="41.0117450" lon="-2.6279660">
        <ele>1003.3</ele>
        <time>2020-10-25T12:11:27Z</time>
      </trkpt>
      <trkpt lat="41.0117120" lon="-2.6280230">
        <ele>1003.3</ele>
        <time>2020-10-25T12:11:32Z</time>
      </trkpt>
      <trkpt lat="41.0116740" lon="-2.6280780">
        <ele>1003.3</ele>
        <time>2020-10-25T12:11:37Z</time>
      </trkpt>
      <trkpt lat="41.0116430" lon="-2.6281330">
        <ele>1003.3</ele>
        <time>2020-10-25T12:11:42Z</time>
      </trkpt>
      <trkpt lat="41.0116070" lon="-2.6282030">
        <ele>1004.4</ele>
        <time>2020-10-25T12:11:54Z</time>
      </trkpt>
      <trkpt lat="41.0115200" lon="-2.6283410">
        <ele>996.8</ele>
        <time>2020-10-25T12:14:06Z</time>
      </trkpt>
      <trkpt lat="41.0114870" lon="-2.6284190">
        <ele>996.8</ele>
        <time>2020-10-25T12:14:11Z</time>
      </trkpt>
      <trkpt lat="41.0114510" lon="-2.6284910">
        <ele>996.8</ele>
        <time>2020-10-25T12:14:15Z</time>
      </trkpt>
      <trkpt lat="41.0114330" lon="-2.6285450">
        <ele>996.8</ele>
        <time>2020-10-25T12:14:19Z</time>
      </trkpt>
      <trkpt lat="41.0114120" lon="-2.6286110">
        <ele>996.8</ele>
        <time>2020-10-25T12:14:25Z</time>
      </trkpt>
      <trkpt lat="41.0114050" lon="-2.6286700">
        <ele>996.8</ele>
        <time>2020-10-25T12:14:39Z</time>
      </trkpt>
      <trkpt lat="41.0113970" lon="-2.6287760">
        <ele>996.8</ele>
        <time>2020-10-25T12:16:05Z</time>
      </trkpt>
      <trkpt lat="41.0113840" lon="-2.6288590">
        <ele>996.8</ele>
        <time>2020-10-25T12:16:10Z</time>
      </trkpt>
      <trkpt lat="41.0113690" lon="-2.6289280">
        <ele>996.8</ele>
        <time>2020-10-25T12:16:14Z</time>
      </trkpt>
      <trkpt lat="41.0113560" lon="-2.6289960">
        <ele>996.8</ele>
        <time>2020-10-25T12:16:18Z</time>
      </trkpt>
      <trkpt lat="41.0113410" lon="-2.6290750">
        <ele>995.6</ele>
        <time>2020-10-25T12:16:23Z</time>
      </trkpt>
      <trkpt lat="41.0113330" lon="-2.6291420">
        <ele>995.6</ele>
        <time>2020-10-25T12:16:28Z</time>
      </trkpt>
      <trkpt lat="41.0113150" lon="-2.6292090">
        <ele>995.6</ele>
        <time>2020-10-25T12:16:33Z</time>
      </trkpt>
      <trkpt lat="41.0112920" lon="-2.6292880">
        <ele>995.6</ele>
        <time>2020-10-25T12:16:39Z</time>
      </trkpt>
      <trkpt lat="41.0112720" lon="-2.6293620">
        <ele>995.6</ele>
        <time>2020-10-25T12:16:45Z</time>
      </trkpt>
      <trkpt lat="41.0112610" lon="-2.6294190">
        <ele>995.6</ele>
        <time>2020-10-25T12:16:50Z</time>
      </trkpt>
      <trkpt lat="41.0112410" lon="-2.6294980">
        <ele>995.6</ele>
        <time>2020-10-25T12:16:57Z</time>
      </trkpt>
      <trkpt lat="41.0112260" lon="-2.6295730">
        <ele>994.2</ele>
        <time>2020-10-25T12:17:03Z</time>
      </trkpt>
      <trkpt lat="41.0112080" lon="-2.6296450">
        <ele>995.2</ele>
        <time>2020-10-25T12:17:08Z</time>
      </trkpt>
      <trkpt lat="41.0111900" lon="-2.6297150">
        <ele>994.0</ele>
        <time>2020-10-25T12:17:14Z</time>
      </trkpt>
      <trkpt lat="41.0111820" lon="-2.6297780">
        <ele>994.0</ele>
        <time>2020-10-25T12:17:19Z</time>
      </trkpt>
      <trkpt lat="41.0111690" lon="-2.6298540">
        <ele>994.0</ele>
        <time>2020-10-25T12:17:25Z</time>
      </trkpt>
      <trkpt lat="41.0111590" lon="-2.6299130">
        <ele>992.8</ele>
        <time>2020-10-25T12:17:30Z</time>
      </trkpt>
      <trkpt lat="41.0111360" lon="-2.6299870">
        <ele>992.8</ele>
        <time>2020-10-25T12:17:36Z</time>
      </trkpt>
      <trkpt lat="41.0111160" lon="-2.6300500">
        <ele>992.8</ele>
        <time>2020-10-25T12:17:41Z</time>
      </trkpt>
      <trkpt lat="41.0111000" lon="-2.6301120">
        <ele>992.8</ele>
        <time>2020-10-25T12:17:49Z</time>
      </trkpt>
      <trkpt lat="41.0110770" lon="-2.6301910">
        <ele>992.8</ele>
        <time>2020-10-25T12:17:55Z</time>
      </trkpt>
      <trkpt lat="41.0110590" lon="-2.6302500">
        <ele>992.8</ele>
        <time>2020-10-25T12:18:00Z</time>
      </trkpt>
      <trkpt lat="41.0110310" lon="-2.6303160">
        <ele>992.8</ele>
        <time>2020-10-25T12:18:05Z</time>
      </trkpt>
      <trkpt lat="41.0109980" lon="-2.6303770">
        <ele>991.1</ele>
        <time>2020-10-25T12:18:11Z</time>
      </trkpt>
      <trkpt lat="41.0109640" lon="-2.6304340">
        <ele>991.1</ele>
        <time>2020-10-25T12:18:16Z</time>
      </trkpt>
      <trkpt lat="41.0109260" lon="-2.6304900">
        <ele>991.1</ele>
        <time>2020-10-25T12:18:22Z</time>
      </trkpt>
      <trkpt lat="41.0108880" lon="-2.6305460">
        <ele>991.1</ele>
        <time>2020-10-25T12:18:27Z</time>
      </trkpt>
      <trkpt lat="41.0108570" lon="-2.6306080">
        <ele>991.1</ele>
        <time>2020-10-25T12:18:32Z</time>
      </trkpt>
      <trkpt lat="41.0108360" lon="-2.6306740">
        <ele>989.9</ele>
        <time>2020-10-25T12:18:37Z</time>
      </trkpt>
      <trkpt lat="41.0108110" lon="-2.6307480">
        <ele>991.2</ele>
        <time>2020-10-25T12:18:42Z</time>
      </trkpt>
      <trkpt lat="41.0107930" lon="-2.6308140">
        <ele>991.2</ele>
        <time>2020-10-25T12:18:47Z</time>
      </trkpt>
      <trkpt lat="41.0107720" lon="-2.6308710">
        <ele>991.2</ele>
        <time>2020-10-25T12:18:51Z</time>
      </trkpt>
      <trkpt lat="41.0107550" lon="-2.6309400">
        <ele>991.2</ele>
        <time>2020-10-25T12:18:56Z</time>
      </trkpt>
      <trkpt lat="41.0107260" lon="-2.6310090">
        <ele>991.2</ele>
        <time>2020-10-25T12:19:01Z</time>
      </trkpt>
      <trkpt lat="41.0107080" lon="-2.6310650">
        <ele>991.2</ele>
        <time>2020-10-25T12:19:05Z</time>
      </trkpt>
      <trkpt lat="41.0106800" lon="-2.6311250">
        <ele>990.0</ele>
        <time>2020-10-25T12:19:10Z</time>
      </trkpt>
      <trkpt lat="41.0106500" lon="-2.6311990">
        <ele>990.0</ele>
        <time>2020-10-25T12:19:16Z</time>
      </trkpt>
      <trkpt lat="41.0106190" lon="-2.6312610">
        <ele>990.0</ele>
        <time>2020-10-25T12:19:21Z</time>
      </trkpt>
      <trkpt lat="41.0105830" lon="-2.6313170">
        <ele>990.0</ele>
        <time>2020-10-25T12:19:26Z</time>
      </trkpt>
      <trkpt lat="41.0105550" lon="-2.6313740">
        <ele>990.0</ele>
        <time>2020-10-25T12:19:32Z</time>
      </trkpt>
      <trkpt lat="41.0105290" lon="-2.6314300">
        <ele>990.0</ele>
        <time>2020-10-25T12:19:38Z</time>
      </trkpt>
      <trkpt lat="41.0104860" lon="-2.6314960">
        <ele>990.0</ele>
        <time>2020-10-25T12:19:44Z</time>
      </trkpt>
      <trkpt lat="41.0104550" lon="-2.6315510">
        <ele>990.0</ele>
        <time>2020-10-25T12:19:49Z</time>
      </trkpt>
      <trkpt lat="41.0104190" lon="-2.6316050">
        <ele>990.0</ele>
        <time>2020-10-25T12:19:54Z</time>
      </trkpt>
      <trkpt lat="41.0103760" lon="-2.6316450">
        <ele>990.0</ele>
        <time>2020-10-25T12:19:59Z</time>
      </trkpt>
      <trkpt lat="41.0103300" lon="-2.6316700">
        <ele>988.8</ele>
        <time>2020-10-25T12:20:03Z</time>
      </trkpt>
      <trkpt lat="41.0102810" lon="-2.6317080">
        <ele>988.8</ele>
        <time>2020-10-25T12:20:09Z</time>
      </trkpt>
      <trkpt lat="41.0102450" lon="-2.6317580">
        <ele>990.1</ele>
        <time>2020-10-25T12:20:14Z</time>
      </trkpt>
      <trkpt lat="41.0102090" lon="-2.6318540">
        <ele>990.1</ele>
        <time>2020-10-25T12:20:27Z</time>
      </trkpt>
      <trkpt lat="41.0101790" lon="-2.6319050">
        <ele>990.1</ele>
        <time>2020-10-25T12:20:33Z</time>
      </trkpt>
      <trkpt lat="41.0101350" lon="-2.6319550">
        <ele>990.1</ele>
        <time>2020-10-25T12:20:38Z</time>
      </trkpt>
      <trkpt lat="41.0101020" lon="-2.6319820">
        <ele>990.1</ele>
        <time>2020-10-25T12:20:47Z</time>
      </trkpt>
      <trkpt lat="41.0100790" lon="-2.6320160">
        <ele>988.5</ele>
        <time>2020-10-25T12:21:26Z</time>
      </trkpt>
      <trkpt lat="41.0100480" lon="-2.6320900">
        <ele>988.5</ele>
        <time>2020-10-25T12:21:30Z</time>
      </trkpt>
      <trkpt lat="41.0100300" lon="-2.6321540">
        <ele>988.5</ele>
        <time>2020-10-25T12:21:34Z</time>
      </trkpt>
      <trkpt lat="41.0100250" lon="-2.6322260">
        <ele>991.7</ele>
        <time>2020-10-25T12:21:39Z</time>
      </trkpt>
      <trkpt lat="41.0100150" lon="-2.6322950">
        <ele>991.7</ele>
        <time>2020-10-25T12:21:44Z</time>
      </trkpt>
      <trkpt lat="41.0100150" lon="-2.6323810">
        <ele>991.7</ele>
        <time>2020-10-25T12:21:49Z</time>
      </trkpt>
      <trkpt lat="41.0100070" lon="-2.6324640">
        <ele>991.7</ele>
        <time>2020-10-25T12:21:54Z</time>
      </trkpt>
      <trkpt lat="41.0100020" lon="-2.6325360">
        <ele>990.5</ele>
        <time>2020-10-25T12:21:59Z</time>
      </trkpt>
      <trkpt lat="41.0099990" lon="-2.6326100">
        <ele>990.5</ele>
        <time>2020-10-25T12:22:04Z</time>
      </trkpt>
      <trkpt lat="41.0099920" lon="-2.6326750">
        <ele>990.5</ele>
        <time>2020-10-25T12:22:08Z</time>
      </trkpt>
      <trkpt lat="41.0099760" lon="-2.6327470">
        <ele>990.5</ele>
        <time>2020-10-25T12:22:13Z</time>
      </trkpt>
      <trkpt lat="41.0099790" lon="-2.6328230">
        <ele>990.5</ele>
        <time>2020-10-25T12:22:18Z</time>
      </trkpt>
      <trkpt lat="41.0099920" lon="-2.6328920">
        <ele>990.5</ele>
        <time>2020-10-25T12:22:24Z</time>
      </trkpt>
      <trkpt lat="41.0099610" lon="-2.6328990">
        <ele>990.5</ele>
        <time>2020-10-25T12:22:47Z</time>
      </trkpt>
      <trkpt lat="41.0099840" lon="-2.6329720">
        <ele>990.5</ele>
        <time>2020-10-25T12:22:51Z</time>
      </trkpt>
      <trkpt lat="41.0100020" lon="-2.6330470">
        <ele>990.5</ele>
        <time>2020-10-25T12:22:54Z</time>
      </trkpt>
      <trkpt lat="41.0100250" lon="-2.6331140">
        <ele>991.8</ele>
        <time>2020-10-25T12:22:57Z</time>
      </trkpt>
      <trkpt lat="41.0100580" lon="-2.6331750">
        <ele>991.8</ele>
        <time>2020-10-25T12:23:01Z</time>
      </trkpt>
      <trkpt lat="41.0100710" lon="-2.6332470">
        <ele>991.8</ele>
        <time>2020-10-25T12:23:06Z</time>
      </trkpt>
      <trkpt lat="41.0100790" lon="-2.6332920">
        <ele>991.8</ele>
        <time>2020-10-25T12:23:31Z</time>
      </trkpt>
      <trkpt lat="41.0100940" lon="-2.6333770">
        <ele>991.8</ele>
        <time>2020-10-25T12:23:35Z</time>
      </trkpt>
      <trkpt lat="41.0101040" lon="-2.6334450">
        <ele>991.8</ele>
        <time>2020-10-25T12:23:38Z</time>
      </trkpt>
      <trkpt lat="41.0101250" lon="-2.6334990">
        <ele>991.8</ele>
        <time>2020-10-25T12:23:42Z</time>
      </trkpt>
      <trkpt lat="41.0101350" lon="-2.6335640">
        <ele>994.1</ele>
        <time>2020-10-25T12:24:07Z</time>
      </trkpt>
      <trkpt lat="41.0101580" lon="-2.6336330">
        <ele>994.1</ele>
        <time>2020-10-25T12:24:11Z</time>
      </trkpt>
      <trkpt lat="41.0101810" lon="-2.6337050">
        <ele>994.1</ele>
        <time>2020-10-25T12:24:15Z</time>
      </trkpt>
      <trkpt lat="41.0102020" lon="-2.6337700">
        <ele>994.1</ele>
        <time>2020-10-25T12:24:19Z</time>
      </trkpt>
      <trkpt lat="41.0102250" lon="-2.6338320">
        <ele>994.1</ele>
        <time>2020-10-25T12:24:24Z</time>
      </trkpt>
      <trkpt lat="41.0102430" lon="-2.6338940">
        <ele>994.1</ele>
        <time>2020-10-25T12:24:29Z</time>
      </trkpt>
      <trkpt lat="41.0102580" lon="-2.6339590">
        <ele>994.1</ele>
        <time>2020-10-25T12:24:34Z</time>
      </trkpt>
      <trkpt lat="41.0102660" lon="-2.6340380">
        <ele>994.1</ele>
        <time>2020-10-25T12:24:39Z</time>
      </trkpt>
      <trkpt lat="41.0102730" lon="-2.6341080">
        <ele>994.1</ele>
        <time>2020-10-25T12:24:44Z</time>
      </trkpt>
      <trkpt lat="41.0102890" lon="-2.6341810">
        <ele>994.1</ele>
        <time>2020-10-25T12:24:49Z</time>
      </trkpt>
      <trkpt lat="41.0103070" lon="-2.6342520">
        <ele>994.1</ele>
        <time>2020-10-25T12:24:54Z</time>
      </trkpt>
      <trkpt lat="41.0103220" lon="-2.6343170">
        <ele>994.1</ele>
        <time>2020-10-25T12:24:59Z</time>
      </trkpt>
      <trkpt lat="41.0103420" lon="-2.6343850">
        <ele>994.1</ele>
        <time>2020-10-25T12:25:04Z</time>
      </trkpt>
      <trkpt lat="41.0103580" lon="-2.6344490">
        <ele>994.1</ele>
        <time>2020-10-25T12:25:09Z</time>
      </trkpt>
      <trkpt lat="41.0103730" lon="-2.6345200">
        <ele>994.1</ele>
        <time>2020-10-25T12:25:14Z</time>
      </trkpt>
      <trkpt lat="41.0103960" lon="-2.6345920">
        <ele>994.1</ele>
        <time>2020-10-25T12:25:20Z</time>
      </trkpt>
      <trkpt lat="41.0104220" lon="-2.6346480">
        <ele>992.5</ele>
        <time>2020-10-25T12:25:25Z</time>
      </trkpt>
      <trkpt lat="41.0104400" lon="-2.6347090">
        <ele>991.2</ele>
        <time>2020-10-25T12:25:30Z</time>
      </trkpt>
      <trkpt lat="41.0104760" lon="-2.6347700">
        <ele>991.2</ele>
        <time>2020-10-25T12:25:36Z</time>
      </trkpt>
      <trkpt lat="41.0105010" lon="-2.6348240">
        <ele>992.3</ele>
        <time>2020-10-25T12:25:41Z</time>
      </trkpt>
      <trkpt lat="41.0105520" lon="-2.6348730">
        <ele>992.3</ele>
        <time>2020-10-25T12:25:47Z</time>
      </trkpt>
      <trkpt lat="41.0105910" lon="-2.6349200">
        <ele>992.3</ele>
        <time>2020-10-25T12:25:52Z</time>
      </trkpt>
      <trkpt lat="41.0106320" lon="-2.6349600">
        <ele>992.3</ele>
        <time>2020-10-25T12:25:57Z</time>
      </trkpt>
      <trkpt lat="41.0106730" lon="-2.6350020">
        <ele>993.5</ele>
        <time>2020-10-25T12:26:01Z</time>
      </trkpt>
      <trkpt lat="41.0107080" lon="-2.6350570">
        <ele>993.5</ele>
        <time>2020-10-25T12:26:05Z</time>
      </trkpt>
      <trkpt lat="41.0107490" lon="-2.6350980">
        <ele>993.5</ele>
        <time>2020-10-25T12:26:10Z</time>
      </trkpt>
      <trkpt lat="41.0108010" lon="-2.6351320">
        <ele>993.5</ele>
        <time>2020-10-25T12:26:15Z</time>
      </trkpt>
      <trkpt lat="41.0108490" lon="-2.6351850">
        <ele>993.5</ele>
        <time>2020-10-25T12:26:21Z</time>
      </trkpt>
      <trkpt lat="41.0108830" lon="-2.6352270">
        <ele>994.7</ele>
        <time>2020-10-25T12:26:25Z</time>
      </trkpt>
      <trkpt lat="41.0109290" lon="-2.6352620">
        <ele>994.7</ele>
        <time>2020-10-25T12:26:30Z</time>
      </trkpt>
      <trkpt lat="41.0109900" lon="-2.6352900">
        <ele>995.9</ele>
        <time>2020-10-25T12:26:35Z</time>
      </trkpt>
      <trkpt lat="41.0110440" lon="-2.6353230">
        <ele>995.9</ele>
        <time>2020-10-25T12:26:40Z</time>
      </trkpt>
      <trkpt lat="41.0110850" lon="-2.6353560">
        <ele>995.9</ele>
        <time>2020-10-25T12:26:46Z</time>
      </trkpt>
      <trkpt lat="41.0111360" lon="-2.6353780">
        <ele>995.9</ele>
        <time>2020-10-25T12:26:53Z</time>
      </trkpt>
      <trkpt lat="41.0112490" lon="-2.6354570">
        <ele>993.3</ele>
        <time>2020-10-25T12:27:13Z</time>
      </trkpt>
      <trkpt lat="41.0112950" lon="-2.6354820">
        <ele>993.3</ele>
        <time>2020-10-25T12:27:20Z</time>
      </trkpt>
      <trkpt lat="41.0113410" lon="-2.6355180">
        <ele>993.3</ele>
        <time>2020-10-25T12:27:27Z</time>
      </trkpt>
      <trkpt lat="41.0113890" lon="-2.6355510">
        <ele>993.3</ele>
        <time>2020-10-25T12:27:33Z</time>
      </trkpt>
      <trkpt lat="41.0114360" lon="-2.6355780">
        <ele>993.3</ele>
        <time>2020-10-25T12:27:39Z</time>
      </trkpt>
      <trkpt lat="41.0114940" lon="-2.6356090">
        <ele>993.3</ele>
        <time>2020-10-25T12:27:45Z</time>
      </trkpt>
      <trkpt lat="41.0115400" lon="-2.6356350">
        <ele>995.1</ele>
        <time>2020-10-25T12:27:50Z</time>
      </trkpt>
      <trkpt lat="41.0115920" lon="-2.6356690">
        <ele>995.1</ele>
        <time>2020-10-25T12:27:56Z</time>
      </trkpt>
      <trkpt lat="41.0116530" lon="-2.6356860">
        <ele>995.1</ele>
        <time>2020-10-25T12:28:03Z</time>
      </trkpt>
      <trkpt lat="41.0117070" lon="-2.6356960">
        <ele>995.1</ele>
        <time>2020-10-25T12:28:09Z</time>
      </trkpt>
      <trkpt lat="41.0117680" lon="-2.6357170">
        <ele>995.1</ele>
        <time>2020-10-25T12:28:15Z</time>
      </trkpt>
      <trkpt lat="41.0118170" lon="-2.6357360">
        <ele>995.1</ele>
        <time>2020-10-25T12:28:20Z</time>
      </trkpt>
      <trkpt lat="41.0118680" lon="-2.6357360">
        <ele>995.1</ele>
        <time>2020-10-25T12:28:25Z</time>
      </trkpt>
      <trkpt lat="41.0119220" lon="-2.6357540">
        <ele>995.1</ele>
        <time>2020-10-25T12:28:30Z</time>
      </trkpt>
      <trkpt lat="41.0119650" lon="-2.6357750">
        <ele>995.1</ele>
        <time>2020-10-25T12:28:35Z</time>
      </trkpt>
      <trkpt lat="41.0120190" lon="-2.6357920">
        <ele>995.1</ele>
        <time>2020-10-25T12:28:41Z</time>
      </trkpt>
      <trkpt lat="41.0120700" lon="-2.6358080">
        <ele>995.1</ele>
        <time>2020-10-25T12:28:47Z</time>
      </trkpt>
      <trkpt lat="41.0120550" lon="-2.6357930">
        <ele>995.1</ele>
        <time>2020-10-25T12:28:55Z</time>
      </trkpt>
      <trkpt lat="41.0120090" lon="-2.6357590">
        <ele>995.1</ele>
        <time>2020-10-25T12:29:03Z</time>
      </trkpt>
      <trkpt lat="41.0119960" lon="-2.6357320">
        <ele>992.8</ele>
        <time>2020-10-25T12:29:28Z</time>
      </trkpt>
      <trkpt lat="41.0120320" lon="-2.6357790">
        <ele>992.8</ele>
        <time>2020-10-25T12:29:32Z</time>
      </trkpt>
      <trkpt lat="41.0120780" lon="-2.6358140">
        <ele>992.8</ele>
        <time>2020-10-25T12:29:36Z</time>
      </trkpt>
      <trkpt lat="41.0121320" lon="-2.6358480">
        <ele>992.8</ele>
        <time>2020-10-25T12:29:41Z</time>
      </trkpt>
      <trkpt lat="41.0121730" lon="-2.6358790">
        <ele>992.8</ele>
        <time>2020-10-25T12:29:46Z</time>
      </trkpt>
      <trkpt lat="41.0122290" lon="-2.6358890">
        <ele>992.8</ele>
        <time>2020-10-25T12:29:51Z</time>
      </trkpt>
      <trkpt lat="41.0122830" lon="-2.6358960">
        <ele>992.8</ele>
        <time>2020-10-25T12:29:55Z</time>
      </trkpt>
      <trkpt lat="41.0123340" lon="-2.6359080">
        <ele>992.8</ele>
        <time>2020-10-25T12:29:59Z</time>
      </trkpt>
      <trkpt lat="41.0123930" lon="-2.6359200">
        <ele>992.8</ele>
        <time>2020-10-25T12:30:04Z</time>
      </trkpt>
      <trkpt lat="41.0124600" lon="-2.6359370">
        <ele>992.8</ele>
        <time>2020-10-25T12:30:09Z</time>
      </trkpt>
      <trkpt lat="41.0125130" lon="-2.6359630">
        <ele>992.8</ele>
        <time>2020-10-25T12:30:14Z</time>
      </trkpt>
      <trkpt lat="41.0125720" lon="-2.6359810">
        <ele>992.8</ele>
        <time>2020-10-25T12:30:19Z</time>
      </trkpt>
      <trkpt lat="41.0126310" lon="-2.6359890">
        <ele>991.6</ele>
        <time>2020-10-25T12:30:23Z</time>
      </trkpt>
      <trkpt lat="41.0126870" lon="-2.6359990">
        <ele>990.4</ele>
        <time>2020-10-25T12:30:28Z</time>
      </trkpt>
      <trkpt lat="41.0127440" lon="-2.6360020">
        <ele>990.4</ele>
        <time>2020-10-25T12:30:34Z</time>
      </trkpt>
      <trkpt lat="41.0127950" lon="-2.6360050">
        <ele>990.4</ele>
        <time>2020-10-25T12:30:39Z</time>
      </trkpt>
      <trkpt lat="41.0128490" lon="-2.6360090">
        <ele>990.4</ele>
        <time>2020-10-25T12:30:53Z</time>
      </trkpt>
      <trkpt lat="41.0129050" lon="-2.6359850">
        <ele>990.4</ele>
        <time>2020-10-25T12:30:59Z</time>
      </trkpt>
      <trkpt lat="41.0129590" lon="-2.6359860">
        <ele>990.4</ele>
        <time>2020-10-25T12:31:04Z</time>
      </trkpt>
      <trkpt lat="41.0130050" lon="-2.6359970">
        <ele>990.4</ele>
        <time>2020-10-25T12:31:09Z</time>
      </trkpt>
      <trkpt lat="41.0130530" lon="-2.6360280">
        <ele>990.4</ele>
        <time>2020-10-25T12:31:15Z</time>
      </trkpt>
      <trkpt lat="41.0131050" lon="-2.6360590">
        <ele>990.4</ele>
        <time>2020-10-25T12:31:20Z</time>
      </trkpt>
      <trkpt lat="41.0131530" lon="-2.6360890">
        <ele>989.8</ele>
        <time>2020-10-25T12:31:25Z</time>
      </trkpt>
      <trkpt lat="41.0132070" lon="-2.6361120">
        <ele>989.8</ele>
        <time>2020-10-25T12:31:30Z</time>
      </trkpt>
      <trkpt lat="41.0132530" lon="-2.6361410">
        <ele>989.8</ele>
        <time>2020-10-25T12:31:36Z</time>
      </trkpt>
      <trkpt lat="41.0133090" lon="-2.6361570">
        <ele>991.0</ele>
        <time>2020-10-25T12:31:42Z</time>
      </trkpt>
      <trkpt lat="41.0133630" lon="-2.6361640">
        <ele>991.0</ele>
        <time>2020-10-25T12:31:48Z</time>
      </trkpt>
      <trkpt lat="41.0134200" lon="-2.6361600">
        <ele>992.2</ele>
        <time>2020-10-25T12:31:54Z</time>
      </trkpt>
      <trkpt lat="41.0134730" lon="-2.6361620">
        <ele>992.2</ele>
        <time>2020-10-25T12:32:04Z</time>
      </trkpt>
      <trkpt lat="41.0135350" lon="-2.6361730">
        <ele>992.2</ele>
        <time>2020-10-25T12:32:11Z</time>
      </trkpt>
      <trkpt lat="41.0135880" lon="-2.6361820">
        <ele>993.6</ele>
        <time>2020-10-25T12:32:17Z</time>
      </trkpt>
      <trkpt lat="41.0136370" lon="-2.6361870">
        <ele>993.6</ele>
        <time>2020-10-25T12:32:22Z</time>
      </trkpt>
      <trkpt lat="41.0136960" lon="-2.6362040">
        <ele>994.8</ele>
        <time>2020-10-25T12:32:28Z</time>
      </trkpt>
      <trkpt lat="41.0137450" lon="-2.6362310">
        <ele>996.0</ele>
        <time>2020-10-25T12:32:34Z</time>
      </trkpt>
      <trkpt lat="41.0137910" lon="-2.6362660">
        <ele>997.2</ele>
        <time>2020-10-25T12:32:40Z</time>
      </trkpt>
      <trkpt lat="41.0138320" lon="-2.6362940">
        <ele>997.2</ele>
        <time>2020-10-25T12:32:45Z</time>
      </trkpt>
      <trkpt lat="41.0138780" lon="-2.6363310">
        <ele>998.5</ele>
        <time>2020-10-25T12:32:51Z</time>
      </trkpt>
      <trkpt lat="41.0139260" lon="-2.6363660">
        <ele>999.8</ele>
        <time>2020-10-25T12:32:58Z</time>
      </trkpt>
      <trkpt lat="41.0139720" lon="-2.6364120">
        <ele>1001.0</ele>
        <time>2020-10-25T12:33:05Z</time>
      </trkpt>
      <trkpt lat="41.0140160" lon="-2.6364560">
        <ele>1002.1</ele>
        <time>2020-10-25T12:33:11Z</time>
      </trkpt>
      <trkpt lat="41.0140540" lon="-2.6364960">
        <ele>1002.1</ele>
        <time>2020-10-25T12:33:16Z</time>
      </trkpt>
      <trkpt lat="41.0140770" lon="-2.6365590">
        <ele>1003.4</ele>
        <time>2020-10-25T12:33:21Z</time>
      </trkpt>
      <trkpt lat="41.0141110" lon="-2.6366100">
        <ele>998.2</ele>
        <time>2020-10-25T12:33:27Z</time>
      </trkpt>
      <trkpt lat="41.0141590" lon="-2.6366590">
        <ele>999.4</ele>
        <time>2020-10-25T12:33:41Z</time>
      </trkpt>
      <trkpt lat="41.0141900" lon="-2.6367110">
        <ele>1000.7</ele>
        <time>2020-10-25T12:33:46Z</time>
      </trkpt>
      <trkpt lat="41.0142340" lon="-2.6367540">
        <ele>1001.9</ele>
        <time>2020-10-25T12:33:52Z</time>
      </trkpt>
      <trkpt lat="41.0142520" lon="-2.6368230">
        <ele>1003.1</ele>
        <time>2020-10-25T12:34:01Z</time>
      </trkpt>
      <trkpt lat="41.0142670" lon="-2.6368960">
        <ele>1004.4</ele>
        <time>2020-10-25T12:34:07Z</time>
      </trkpt>
      <trkpt lat="41.0142850" lon="-2.6369570">
        <ele>1005.6</ele>
        <time>2020-10-25T12:34:13Z</time>
      </trkpt>
      <trkpt lat="41.0142850" lon="-2.6370150">
        <ele>1006.7</ele>
        <time>2020-10-25T12:34:22Z</time>
      </trkpt>
      <trkpt lat="41.0142850" lon="-2.6370980">
        <ele>1006.7</ele>
        <time>2020-10-25T12:34:30Z</time>
      </trkpt>
      <trkpt lat="41.0143080" lon="-2.6371670">
        <ele>1008.0</ele>
        <time>2020-10-25T12:34:36Z</time>
      </trkpt>
      <trkpt lat="41.0143280" lon="-2.6372250">
        <ele>1008.0</ele>
        <time>2020-10-25T12:34:44Z</time>
      </trkpt>
      <trkpt lat="41.0143440" lon="-2.6373240">
        <ele>1009.3</ele>
        <time>2020-10-25T12:34:58Z</time>
      </trkpt>
      <trkpt lat="41.0143440" lon="-2.6373930">
        <ele>1010.6</ele>
        <time>2020-10-25T12:35:04Z</time>
      </trkpt>
      <trkpt lat="41.0143590" lon="-2.6374850">
        <ele>1011.7</ele>
        <time>2020-10-25T12:35:12Z</time>
      </trkpt>
      <trkpt lat="41.0143770" lon="-2.6375560">
        <ele>1013.0</ele>
        <time>2020-10-25T12:35:18Z</time>
      </trkpt>
      <trkpt lat="41.0144150" lon="-2.6376110">
        <ele>1017.5</ele>
        <time>2020-10-25T12:35:24Z</time>
      </trkpt>
      <trkpt lat="41.0144670" lon="-2.6376350">
        <ele>1018.7</ele>
        <time>2020-10-25T12:35:30Z</time>
      </trkpt>
      <trkpt lat="41.0145100" lon="-2.6376680">
        <ele>1018.7</ele>
        <time>2020-10-25T12:35:36Z</time>
      </trkpt>
      <trkpt lat="41.0145560" lon="-2.6376800">
        <ele>1019.8</ele>
        <time>2020-10-25T12:35:42Z</time>
      </trkpt>
      <trkpt lat="41.0146250" lon="-2.6376730">
        <ele>1019.8</ele>
        <time>2020-10-25T12:35:50Z</time>
      </trkpt>
      <trkpt lat="41.0146560" lon="-2.6376270">
        <ele>1019.8</ele>
        <time>2020-10-25T12:35:56Z</time>
      </trkpt>
      <trkpt lat="41.0146890" lon="-2.6375760">
        <ele>1019.8</ele>
        <time>2020-10-25T12:36:00Z</time>
      </trkpt>
      <trkpt lat="41.0147100" lon="-2.6375100">
        <ele>1018.7</ele>
        <time>2020-10-25T12:36:05Z</time>
      </trkpt>
      <trkpt lat="41.0147200" lon="-2.6374370">
        <ele>1018.7</ele>
        <time>2020-10-25T12:36:10Z</time>
      </trkpt>
      <trkpt lat="41.0147200" lon="-2.6373610">
        <ele>1018.7</ele>
        <time>2020-10-25T12:36:15Z</time>
      </trkpt>
      <trkpt lat="41.0147200" lon="-2.6372860">
        <ele>1018.7</ele>
        <time>2020-10-25T12:36:20Z</time>
      </trkpt>
      <trkpt lat="41.0147250" lon="-2.6372100">
        <ele>1018.7</ele>
        <time>2020-10-25T12:36:25Z</time>
      </trkpt>
      <trkpt lat="41.0147170" lon="-2.6371390">
        <ele>1020.2</ele>
        <time>2020-10-25T12:36:30Z</time>
      </trkpt>
      <trkpt lat="41.0147100" lon="-2.6370720">
        <ele>1021.4</ele>
        <time>2020-10-25T12:36:35Z</time>
      </trkpt>
      <trkpt lat="41.0147020" lon="-2.6369910">
        <ele>1021.4</ele>
        <time>2020-10-25T12:36:41Z</time>
      </trkpt>
      <trkpt lat="41.0146940" lon="-2.6369200">
        <ele>1021.4</ele>
        <time>2020-10-25T12:36:46Z</time>
      </trkpt>
      <trkpt lat="41.0146870" lon="-2.6368400">
        <ele>1021.4</ele>
        <time>2020-10-25T12:36:52Z</time>
      </trkpt>
      <trkpt lat="41.0146740" lon="-2.6367720">
        <ele>1021.4</ele>
        <time>2020-10-25T12:36:58Z</time>
      </trkpt>
      <trkpt lat="41.0146660" lon="-2.6366940">
        <ele>1021.4</ele>
        <time>2020-10-25T12:37:04Z</time>
      </trkpt>
      <trkpt lat="41.0146610" lon="-2.6366290">
        <ele>1021.4</ele>
        <time>2020-10-25T12:37:09Z</time>
      </trkpt>
      <trkpt lat="41.0146530" lon="-2.6365280">
        <ele>1021.4</ele>
        <time>2020-10-25T12:37:14Z</time>
      </trkpt>
      <trkpt lat="41.0146530" lon="-2.6364450">
        <ele>1021.4</ele>
        <time>2020-10-25T12:37:22Z</time>
      </trkpt>
      <trkpt lat="41.0146610" lon="-2.6363770">
        <ele>1021.8</ele>
        <time>2020-10-25T12:37:27Z</time>
      </trkpt>
      <trkpt lat="41.0146790" lon="-2.6363020">
        <ele>1021.8</ele>
        <time>2020-10-25T12:37:33Z</time>
      </trkpt>
      <trkpt lat="41.0147020" lon="-2.6362340">
        <ele>1021.8</ele>
        <time>2020-10-25T12:37:38Z</time>
      </trkpt>
      <trkpt lat="41.0147120" lon="-2.6361670">
        <ele>1021.8</ele>
        <time>2020-10-25T12:37:43Z</time>
      </trkpt>
      <trkpt lat="41.0147400" lon="-2.6360870">
        <ele>1021.8</ele>
        <time>2020-10-25T12:37:49Z</time>
      </trkpt>
      <trkpt lat="41.0147580" lon="-2.6360040">
        <ele>1021.8</ele>
        <time>2020-10-25T12:37:55Z</time>
      </trkpt>
      <trkpt lat="41.0147710" lon="-2.6359400">
        <ele>1021.8</ele>
        <time>2020-10-25T12:38:00Z</time>
      </trkpt>
      <trkpt lat="41.0147870" lon="-2.6358590">
        <ele>1021.8</ele>
        <time>2020-10-25T12:38:06Z</time>
      </trkpt>
      <trkpt lat="41.0148020" lon="-2.6357780">
        <ele>1021.8</ele>
        <time>2020-10-25T12:38:12Z</time>
      </trkpt>
      <trkpt lat="41.0148120" lon="-2.6356950">
        <ele>1021.8</ele>
        <time>2020-10-25T12:38:18Z</time>
      </trkpt>
      <trkpt lat="41.0148200" lon="-2.6356130">
        <ele>1021.8</ele>
        <time>2020-10-25T12:38:23Z</time>
      </trkpt>
      <trkpt lat="41.0148250" lon="-2.6355380">
        <ele>1021.8</ele>
        <time>2020-10-25T12:38:28Z</time>
      </trkpt>
      <trkpt lat="41.0148280" lon="-2.6354670">
        <ele>1021.8</ele>
        <time>2020-10-25T12:38:33Z</time>
      </trkpt>
      <trkpt lat="41.0148280" lon="-2.6353990">
        <ele>1021.8</ele>
        <time>2020-10-25T12:38:38Z</time>
      </trkpt>
      <trkpt lat="41.0148350" lon="-2.6353310">
        <ele>1023.0</ele>
        <time>2020-10-25T12:38:43Z</time>
      </trkpt>
      <trkpt lat="41.0148350" lon="-2.6352480">
        <ele>1023.0</ele>
        <time>2020-10-25T12:38:49Z</time>
      </trkpt>
      <trkpt lat="41.0148330" lon="-2.6351790">
        <ele>1024.2</ele>
        <time>2020-10-25T12:38:54Z</time>
      </trkpt>
      <trkpt lat="41.0148330" lon="-2.6351110">
        <ele>1024.2</ele>
        <time>2020-10-25T12:38:59Z</time>
      </trkpt>
      <trkpt lat="41.0148250" lon="-2.6350430">
        <ele>1024.2</ele>
        <time>2020-10-25T12:39:04Z</time>
      </trkpt>
      <trkpt lat="41.0148170" lon="-2.6349660">
        <ele>1024.2</ele>
        <time>2020-10-25T12:39:10Z</time>
      </trkpt>
      <trkpt lat="41.0148120" lon="-2.6349040">
        <ele>1025.4</ele>
        <time>2020-10-25T12:39:15Z</time>
      </trkpt>
      <trkpt lat="41.0148200" lon="-2.6348200">
        <ele>1024.6</ele>
        <time>2020-10-25T12:39:48Z</time>
      </trkpt>
      <trkpt lat="41.0148020" lon="-2.6347050">
        <ele>1024.6</ele>
        <time>2020-10-25T12:40:41Z</time>
      </trkpt>
      <trkpt lat="41.0147890" lon="-2.6346200">
        <ele>1024.6</ele>
        <time>2020-10-25T12:40:43Z</time>
      </trkpt>
      <trkpt lat="41.0147870" lon="-2.6345040">
        <ele>1024.6</ele>
        <time>2020-10-25T12:40:45Z</time>
      </trkpt>
      <trkpt lat="41.0147810" lon="-2.6343580">
        <ele>1025.8</ele>
        <time>2020-10-25T12:40:47Z</time>
      </trkpt>
      <trkpt lat="41.0147810" lon="-2.6342740">
        <ele>1025.8</ele>
        <time>2020-10-25T12:40:48Z</time>
      </trkpt>
      <trkpt lat="41.0147810" lon="-2.6341790">
        <ele>1025.8</ele>
        <time>2020-10-25T12:40:49Z</time>
      </trkpt>
      <trkpt lat="41.0147870" lon="-2.6340870">
        <ele>1027.0</ele>
        <time>2020-10-25T12:40:50Z</time>
      </trkpt>
      <trkpt lat="41.0147890" lon="-2.6339930">
        <ele>1027.0</ele>
        <time>2020-10-25T12:40:51Z</time>
      </trkpt>
      <trkpt lat="41.0147970" lon="-2.6338960">
        <ele>1028.3</ele>
        <time>2020-10-25T12:40:52Z</time>
      </trkpt>
      <trkpt lat="41.0148040" lon="-2.6337940">
        <ele>1028.3</ele>
        <time>2020-10-25T12:40:53Z</time>
      </trkpt>
      <trkpt lat="41.0148250" lon="-2.6333400">
        <ele>1028.3</ele>
        <time>2020-10-25T12:40:55Z</time>
      </trkpt>
      <trkpt lat="41.0148200" lon="-2.6333090">
        <ele>1030.0</ele>
        <time>2020-10-25T12:40:56Z</time>
      </trkpt>
      <trkpt lat="41.0147740" lon="-2.6328870">
        <ele>1031.2</ele>
        <time>2020-10-25T12:40:59Z</time>
      </trkpt>
      <trkpt lat="41.0148040" lon="-2.6322150">
        <ele>1031.2</ele>
        <time>2020-10-25T12:41:03Z</time>
      </trkpt>
      <trkpt lat="41.0146460" lon="-2.6305240">
        <ele>1031.2</ele>
        <time>2020-10-25T12:41:16Z</time>
      </trkpt>
      <trkpt lat="41.0146560" lon="-2.6303380">
        <ele>1031.2</ele>
        <time>2020-10-25T12:41:19Z</time>
      </trkpt>
      <trkpt lat="41.0146640" lon="-2.6302300">
        <ele>1031.2</ele>
        <time>2020-10-25T12:41:20Z</time>
      </trkpt>
      <trkpt lat="41.0146660" lon="-2.6301120">
        <ele>1031.2</ele>
        <time>2020-10-25T12:41:21Z</time>
      </trkpt>
      <trkpt lat="41.0146660" lon="-2.6299870">
        <ele>1031.2</ele>
        <time>2020-10-25T12:41:22Z</time>
      </trkpt>
      <trkpt lat="41.0146660" lon="-2.6298600">
        <ele>1032.4</ele>
        <time>2020-10-25T12:41:23Z</time>
      </trkpt>
      <trkpt lat="41.0146710" lon="-2.6297300">
        <ele>1032.4</ele>
        <time>2020-10-25T12:41:24Z</time>
      </trkpt>
      <trkpt lat="41.0146710" lon="-2.6296010">
        <ele>1034.3</ele>
        <time>2020-10-25T12:41:25Z</time>
      </trkpt>
      <trkpt lat="41.0146790" lon="-2.6294780">
        <ele>1034.3</ele>
        <time>2020-10-25T12:41:26Z</time>
      </trkpt>
      <trkpt lat="41.0146870" lon="-2.6293600">
        <ele>1034.3</ele>
        <time>2020-10-25T12:41:27Z</time>
      </trkpt>
      <trkpt lat="41.0146970" lon="-2.6292450">
        <ele>1035.5</ele>
        <time>2020-10-25T12:41:28Z</time>
      </trkpt>
      <trkpt lat="41.0147050" lon="-2.6291320">
        <ele>1035.5</ele>
        <time>2020-10-25T12:41:29Z</time>
      </trkpt>
      <trkpt lat="41.0147100" lon="-2.6290220">
        <ele>1035.5</ele>
        <time>2020-10-25T12:41:30Z</time>
      </trkpt>
      <trkpt lat="41.0147170" lon="-2.6289140">
        <ele>1036.8</ele>
        <time>2020-10-25T12:41:31Z</time>
      </trkpt>
      <trkpt lat="41.0147200" lon="-2.6288120">
        <ele>1036.8</ele>
        <time>2020-10-25T12:41:32Z</time>
      </trkpt>
      <trkpt lat="41.0147280" lon="-2.6287220">
        <ele>1036.8</ele>
        <time>2020-10-25T12:41:33Z</time>
      </trkpt>
      <trkpt lat="41.0147350" lon="-2.6286410">
        <ele>1036.8</ele>
        <time>2020-10-25T12:41:34Z</time>
      </trkpt>
      <trkpt lat="41.0147430" lon="-2.6285740">
        <ele>1038.1</ele>
        <time>2020-10-25T12:41:35Z</time>
      </trkpt>
    </trkseg>
  </trk>
</gpx>
